FW2979 Weather Reports


Display with metric or nautical units.
time (UTC)temp
F
wind
direction
speed
MPH
gust
MPH
rain 1hr
in
rain 24hr
in
rain mn
in
humidity
%
barometer
mb
20181120153338 29 202 23.0 26.0 0.00 0.01 0.00 93 809.7
20181120153141 29 206 21.0 25.0 0.00 0.01 0.00 91 809.7
20181120153039 29 205 22.0 27.0 0.00 0.01 0.00 92 809.8
20181120152942 29 195 18.0 25.0 0.00 0.01 0.00 92 809.8
20181120152840 29 203 26.0 29.0 0.00 0.01 0.00 92 809.7
20181120152740 29 203 21.0 23.0 0.00 0.01 0.00 90 809.7
20181120152641 29 202 21.0 24.0 0.00 0.01 0.00 90 809.7
20181120152440 29 207 19.0 24.0 0.00 0.01 0.00 90 809.9
20181120152339 29 189 17.0 21.0 0.00 0.01 0.00 89 809.9
20181120152241 30 198 19.0 22.0 0.00 0.01 0.00 89 809.9
20181120152140 30 203 19.0 21.0 0.00 0.01 0.00 89 809.8
20181120152040 30 202 20.0 22.0 0.00 0.01 0.00 91 809.9
20181120151740 30 196 17.0 21.0 0.00 0.01 0.00 90 809.9
20181120151539 30 210 22.0 24.0 0.00 0.01 0.00 89 809.8
20181120151437 30 212 20.0 23.0 0.00 0.01 0.00 90 809.9
20181120151337 30 201 22.0 25.0 0.00 0.01 0.00 91 809.8
20181120151239 30 198 21.0 25.0 0.00 0.01 0.00 88 809.8
20181120151040 30 211 22.0 28.0 0.00 0.01 0.00 88 809.9
20181120150839 30 202 22.0 28.0 0.00 0.01 0.00 89 809.8
20181120150741 30 205 19.0 22.0 0.00 0.01 0.00 88 810.1
20181120150339 30 192 15.0 16.0 0.00 0.01 0.00 91 810.2
20181120150039 30 207 20.0 22.0 0.00 0.01 0.00 89 810.1
20181120145838 30 201 17.0 20.0 0.00 0.01 0.00 90 810.2
20181120145637 31 208 22.0 25.0 0.00 0.01 0.00 90 810.1
20181120145537 30 204 20.0 23.0 0.00 0.01 0.00 90 809.9
20181120145437 30 211 23.0 26.0 0.00 0.01 0.00 90 810.1
20181120145337 30 209 18.0 21.0 0.00 0.01 0.00 90 810.1
20181120145236 30 207 19.0 22.0 0.00 0.01 0.00 89 810.1
20181120145136 31 204 22.0 24.0 0.00 0.01 0.00 90 809.9
20181120145036 30 210 27.0 29.0 0.00 0.01 0.00 90 809.8
20181120144936 30 209 22.0 26.0 0.00 0.01 0.00 90 809.9
20181120144836 30 199 16.0 19.0 0.00 0.01 0.00 91 810.2
20181120144736 30 205 21.0 22.0 0.00 0.01 0.00 90 810.1
20181120144637 30 212 24.0 28.0 0.00 0.01 0.00 89 809.9
20181120144536 30 206 24.0 26.0 0.00 0.01 0.00 90 809.9
20181120144437 30 202 22.0 25.0 0.00 0.01 0.00 89 809.9
20181120144336 30 199 17.0 20.0 0.00 0.01 0.00 90 810.1
20181120144236 30 201 21.0 23.0 0.00 0.01 0.00 90 810.1
20181120144136 30 207 23.0 28.0 0.00 0.01 0.00 90 809.9
20181120144037 30 197 17.0 20.0 0.00 0.01 0.00 89 810.1
20181120143936 30 203 19.0 24.0 0.00 0.01 0.00 88 810.1
20181120143836 30 199 20.0 23.0 0.00 0.01 0.00 87 810.1
20181120143737 29 204 23.0 27.0 0.00 0.01 0.00 89 809.8
20181120143636 29 208 17.0 22.0 0.00 0.01 0.00 87 810.1
20181120143536 30 196 17.0 19.0 0.00 0.01 0.00 88 810.2
20181120143436 30 199 21.0 26.0 0.00 0.01 0.00 88 810.1
20181120143336 30 201 21.0 23.0 0.00 0.01 0.00 87 810.1
20181120143236 30 199 19.0 23.0 0.00 0.01 0.00 86 810.1
20181120143136 30 204 21.0 23.0 0.00 0.01 0.00 87 810.1
20181120143036 30 196 18.0 22.0 0.00 0.01 0.00 85 810.2
20181120142836 30 201 20.0 23.0 0.00 0.01 0.00 88 810.1
20181120142736 30 196 15.0 19.0 0.00 0.01 0.00 86 810.3
20181120142636 30 201 21.0 26.0 0.00 0.01 0.00 87 810.2
20181120142438 30 205 19.0 21.0 0.00 0.01 0.00 86 810.1
20181120142340 30 206 19.0 24.0 0.00 0.01 0.00 86 810.1
20181120142238 30 212 26.0 33.0 0.00 0.01 0.00 87 810.1
20181120142140 30 213 25.0 26.0 0.00 0.01 0.00 86 810.1
20181120141939 30 208 20.0 24.0 0.00 0.01 0.00 85 810.3
20181120141739 31 208 26.0 28.0 0.00 0.01 0.00 87 809.9
20181120141639 31 213 29.0 33.0 0.00 0.01 0.00 88 810.1
20181120141336 29 207 23.0 27.0 0.00 0.01 0.00 88 810.1
20181120141236 29 210 23.0 28.0 0.00 0.01 0.00 87 810.1
20181120141136 29 201 23.0 27.0 0.00 0.01 0.00 88 809.9
20181120141036 29 204 24.0 28.0 0.00 0.01 0.00 88 809.9
20181120140936 28 205 26.0 30.0 0.00 0.01 0.00 87 809.5
20181120140836 29 200 18.0 20.0 0.00 0.01 0.00 84 810.1
20181120140736 29 203 21.0 24.0 0.00 0.01 0.00 86 810.1
20181120140615 28 213 21.0 28.0 0.00 0.01 0.00 87 810.1
20181120140516 28 207 24.0 27.0 0.00 0.01 0.00 87 810.1
20181120140416 28 201 20.0 24.0 0.00 0.01 0.00 87 810.1
20181120140316 28 203 24.0 27.0 0.00 0.01 0.00 86 810.1
20181120140116 29 203 20.0 24.0 0.00 0.01 0.00 84 810.1
20181120140015 29 207 26.0 29.0 0.00 0.01 0.00 84 809.8
20181120135815 29 193 23.0 27.0 0.00 0.01 0.00 86 810.1
20181120135715 29 204 26.0 28.0 0.00 0.01 0.00 86 809.8
20181120135615 29 198 22.0 26.0 0.00 0.01 0.00 86 809.9
20181120135515 29 209 30.0 33.0 0.00 0.01 0.00 86 809.8
20181120135415 29 193 22.0 24.0 0.00 0.01 0.00 87 809.9
20181120135315 29 191 21.0 24.0 0.00 0.01 0.00 85 810.2
20181120135214 29 201 22.0 24.0 0.00 0.01 0.00 84 810.1
20181120135115 29 205 28.0 31.0 0.00 0.01 0.00 84 809.7
20181120135015 29 203 27.0 30.0 0.00 0.01 0.00 85 809.9
20181120134915 29 210 30.0 33.0 0.00 0.01 0.00 84 809.8
20181120134814 29 210 26.0 29.0 0.00 0.01 0.00 85 809.9
20181120134715 29 197 20.0 24.0 0.00 0.01 0.00 86 810.1
20181120134615 29 212 29.0 32.0 0.00 0.01 0.00 85 809.7
20181120134515 29 192 23.0 29.0 0.00 0.01 0.00 84 810.1
20181120134414 29 194 28.0 32.0 0.00 0.01 0.00 85 809.9
20181120134315 29 200 19.0 22.0 0.00 0.01 0.00 86 810.1
20181120134215 28 195 21.0 23.0 0.00 0.01 0.00 87 810.1
20181120134115 28 194 20.0 23.0 0.00 0.01 0.00 85 810.1
20181120133914 29 201 22.0 25.0 0.00 0.01 0.00 85 809.9
20181120133815 28 204 23.0 26.0 0.00 0.01 0.00 88 809.9
20181120133715 28 202 23.0 27.0 0.00 0.01 0.00 88 810.1
20181120133615 28 206 25.0 27.0 0.00 0.01 0.00 86 809.9
20181120133515 28 198 21.0 25.0 0.00 0.01 0.00 84 810.1
20181120133417 28 193 24.0 28.0 0.00 0.01 0.00 86 810.1
20181120133315 28 200 27.0 32.0 0.00 0.01 0.00 84 809.9
20181120133116 27 193 22.0 24.0 0.00 0.01 0.00 86 810.1
20181120133015 27 195 21.0 23.0 0.00 0.01 0.00 85 810.1
20181120132916 27 199 24.0 29.0 0.00 0.01 0.00 87 810.1
20181120132816 27 202 21.0 24.0 0.00 0.01 0.00 85 810.1
20181120132716 27 196 24.0 27.0 0.00 0.01 0.00 85 809.9
20181120132516 27 204 25.0 28.0 0.00 0.01 0.00 86 809.9
20181120132415 27 190 25.0 29.0 0.00 0.01 0.00 88 810.1
20181120132215 26 209 27.0 29.0 0.00 0.01 0.00 88 809.9
20181120132015 25 193 22.0 23.0 0.00 0.01 0.00 89 810.1
20181120131915 25 190 18.0 22.0 0.00 0.01 0.00 89 810.1
20181120131716 25 192 20.0 24.0 0.00 0.01 0.00 88 810.1
20181120131616 25 198 21.0 24.0 0.00 0.01 0.00 88 810.2
20181120131515 26 197 20.0 23.0 0.00 0.01 0.00 87 810.1
20181120131415 26 203 20.0 22.0 0.00 0.01 0.00 86 810.1
20181120131315 26 197 21.0 23.0 0.00 0.01 0.00 86 810.1
20181120131115 27 211 29.0 32.0 0.00 0.01 0.00 85 809.8
20181120131015 27 206 24.0 25.0 0.00 0.01 0.00 86 810.1
20181120130816 27 198 18.0 20.0 0.00 0.01 0.00 84 810.2
20181120130615 27 200 23.0 24.0 0.00 0.01 0.00 84 810.1
20181120130516 27 204 25.0 29.0 0.00 0.01 0.00 84 810.1
20181120130316 27 206 21.0 25.0 0.00 0.01 0.00 85 810.3
20181120130114 27 203 22.0 29.0 0.00 0.01 0.00 85 810.2
20181120130014 27 199 22.0 25.0 0.00 0.01 0.00 85 810.2
20181120125914 27 194 22.0 24.0 0.00 0.01 0.00 85 810.1
20181120125814 27 204 22.0 25.0 0.00 0.01 0.00 84 810.1
20181120125714 27 193 22.0 23.0 0.00 0.01 0.00 83 810.2
20181120125614 27 204 25.0 27.0 0.00 0.01 0.00 83 810.1
20181120125414 27 204 23.0 27.0 0.00 0.01 0.00 82 810.1
20181120125314 27 192 23.0 25.0 0.00 0.01 0.00 81 810.1
20181120125215 27 205 24.0 28.0 0.00 0.01 0.00 81 810.1
20181120125115 27 205 26.0 29.0 0.00 0.01 0.00 82 810.1
20181120125016 27 201 22.0 26.0 0.00 0.01 0.00 83 810.2
20181120124814 26 198 20.0 23.0 0.00 0.01 0.00 84 810.2
20181120124714 26 200 19.0 22.0 0.00 0.01 0.00 85 810.2
20181120124615 26 201 23.0 24.0 0.00 0.01 0.00 85 810.1
20181120124514 26 200 22.0 24.0 0.00 0.01 0.00 84 810.1
20181120124414 26 198 19.0 22.0 0.00 0.01 0.00 83 810.1
20181120124314 27 200 21.0 23.0 0.00 0.01 0.00 83 810.1
20181120124214 27 201 22.0 25.0 0.00 0.01 0.00 83 810.1
20181120124114 27 206 26.0 27.0 0.00 0.01 0.00 83 809.9
20181120124014 27 205 22.0 25.0 0.00 0.01 0.00 83 810.1
20181120123914 27 198 21.0 23.0 0.00 0.01 0.00 83 810.1
20181120123814 27 202 21.0 25.0 0.00 0.01 0.00 83 810.1
20181120123714 27 199 19.0 23.0 0.00 0.01 0.00 82 810.1
20181120123614 27 198 22.0 24.0 0.00 0.01 0.00 82 810.1
20181120123515 27 199 23.0 25.0 0.00 0.01 0.00 82 810.1
20181120123415 28 203 23.0 25.0 0.00 0.01 0.00 82 810.1
20181120123315 28 196 20.0 23.0 0.00 0.01 0.00 82 810.1
20181120123214 28 203 21.0 25.0 0.00 0.01 0.00 82 810.1
20181120123115 28 200 23.0 23.0 0.00 0.01 0.00 82 810.1
20181120123015 28 196 20.0 23.0 0.00 0.01 0.00 82 810.1
20181120122916 27 206 21.0 23.0 0.00 0.01 0.00 82 809.9
20181120122714 27 202 22.0 26.0 0.00 0.01 0.00 83 809.9
20181120122614 27 192 19.0 21.0 0.00 0.01 0.00 84 810.1
20181120122514 26 204 19.0 22.0 0.00 0.01 0.00 85 810.1
20181120122414 26 202 21.0 23.0 0.00 0.01 0.00 86 810.1
20181120122314 26 202 20.0 23.0 0.00 0.01 0.00 86 810.1
20181120122214 26 208 23.0 25.0 0.00 0.01 0.00 86 809.9
20181120122114 26 207 21.0 23.0 0.00 0.01 0.00 87 810.1
20181120122014 26 200 20.0 22.0 0.00 0.01 0.00 87 810.1
20181120121914 26 194 22.0 24.0 0.00 0.01 0.00 87 810.1
20181120121814 26 201 20.0 23.0 0.00 0.01 0.00 88 810.1
20181120121715 25 199 19.0 21.0 0.00 0.01 0.00 88 810.1
20181120121615 25 199 20.0 23.0 0.00 0.01 0.00 89 810.1
20181120121514 25 202 21.0 24.0 0.00 0.01 0.00 89 810.1
20181120121415 25 200 21.0 23.0 0.00 0.01 0.00 89 810.1
20181120121314 25 202 22.0 24.0 0.00 0.01 0.00 90 810.1
20181120121214 25 206 21.0 22.0 0.00 0.01 0.00 90 810.1
20181120121114 25 205 20.0 21.0 0.00 0.01 0.00 90 810.1
20181120120914 24 203 18.0 20.0 0.00 0.01 0.00 90 810.2
20181120120814 25 200 17.0 21.0 0.00 0.01 0.00 90 810.2
20181120120714 25 208 22.0 25.0 0.00 0.01 0.00 89 810.1
20181120120613 25 204 22.0 24.0 0.00 0.01 0.00 88 810.1
20181120120514 25 209 22.0 25.0 0.00 0.01 0.00 88 810.1
20181120120414 25 205 23.0 25.0 0.00 0.01 0.00 87 810.1
20181120120314 26 213 25.0 27.0 0.00 0.01 0.00 88 810.1
20181120120214 26 201 18.0 19.0 0.00 0.01 0.00 88 810.2
20181120120113 26 199 19.0 24.0 0.00 0.01 0.00 87 810.2
20181120120014 26 194 17.0 19.0 0.00 0.01 0.00 87 810.2
20181120115914 26 207 20.0 24.0 0.00 0.01 0.00 87 810.1
20181120115814 26 207 22.0 25.0 0.00 0.01 0.00 87 810.2
20181120115715 26 200 19.0 25.0 0.00 0.01 0.00 87 810.2
20181120115615 26 207 22.0 26.0 0.00 0.01 0.00 88 810.2
20181120115515 26 206 21.0 24.0 0.00 0.01 0.00 87 810.2
20181120115413 26 205 23.0 24.0 0.00 0.01 0.00 86 810.1
20181120115314 26 200 22.0 24.0 0.00 0.01 0.00 85 810.2
20181120115213 27 197 19.0 22.0 0.00 0.01 0.00 85 810.3
20181120115114 27 198 21.0 23.0 0.00 0.01 0.00 85 810.2
20181120114914 26 203 24.0 27.0 0.00 0.01 0.00 86 810.2
20181120114814 26 202 23.0 29.0 0.00 0.01 0.00 86 810.3
20181120114714 26 206 23.0 25.0 0.00 0.01 0.00 87 810.1
20181120114615 26 197 19.0 23.0 0.00 0.01 0.00 88 810.2
20181120114514 26 204 24.0 26.0 0.00 0.01 0.00 88 810.1
20181120114415 26 195 22.0 26.0 0.00 0.01 0.00 87 810.2
20181120114214 26 203 20.0 22.0 0.00 0.01 0.00 86 810.3
20181120114015 26 203 21.0 23.0 0.00 0.01 0.00 86 810.2
20181120113914 26 198 19.0 24.0 0.00 0.01 0.00 85 810.3
20181120113715 26 201 17.0 19.0 0.00 0.01 0.00 86 810.5
20181120113514 27 206 23.0 26.0 0.00 0.01 0.00 85 810.2
20181120113413 27 205 21.0 23.0 0.00 0.01 0.00 84 810.3
20181120113313 27 208 21.0 24.0 0.00 0.01 0.00 85 810.5
20181120113115 27 207 23.0 26.0 0.00 0.01 0.00 84 810.3
20181120113015 27 208 21.0 25.0 0.00 0.01 0.00 84 810.2
20181120112915 27 200 17.0 19.0 0.00 0.01 0.00 84 810.5
20181120112815 27 203 22.0 27.0 0.00 0.01 0.00 83 810.3
20181120112614 27 209 22.0 25.0 0.00 0.01 0.00 82 810.5
20181120112514 27 207 18.0 20.0 0.00 0.01 0.00 82 810.6
20181120112413 27 204 19.0 23.0 0.00 0.01 0.00 82 810.5
20181120112314 27 198 16.0 18.0 0.00 0.01 0.00 83 810.6
20181120112215 27 200 17.0 19.0 0.00 0.01 0.00 83 810.6
20181120112114 27 209 18.0 21.0 0.00 0.01 0.00 83 810.6
20181120111914 27 200 18.0 19.0 0.00 0.01 0.00 83 810.7
20181120111713 27 195 20.0 22.0 0.00 0.01 0.00 82 810.6
20181120111615 28 214 20.0 23.0 0.00 0.01 0.00 82 810.6
20181120111415 28 206 20.0 23.0 0.00 0.01 0.00 81 810.6
20181120111215 28 210 22.0 24.0 0.00 0.01 0.00 81 810.6
20181120111113 28 199 15.0 17.0 0.00 0.01 0.00 80 810.7
20181120110814 29 209 17.0 20.0 0.00 0.01 0.00 79 810.9
20181120110713 29 214 17.0 19.0 0.00 0.01 0.00 79 810.9
20181120110613 29 209 19.0 23.0 0.00 0.01 0.00 80 810.7
20181120110513 29 197 20.0 24.0 0.00 0.01 0.00 80 810.9
20181120110413 28 207 21.0 23.0 0.00 0.01 0.00 81 810.7
20181120110313 28 211 21.0 25.0 0.00 0.01 0.00 80 810.5
20181120110213 28 205 21.0 25.0 0.00 0.01 0.00 81 810.6
20181120110113 28 199 20.0 24.0 0.00 0.01 0.00 81 810.6
20181120110015 28 207 23.0 25.0 0.00 0.01 0.00 82 810.6
20181120105914 28 195 21.0 23.0 0.00 0.01 0.00 83 810.7
20181120105814 28 195 19.0 22.0 0.00 0.01 0.00 82 810.7
20181120105714 27 202 18.0 21.0 0.00 0.01 0.00 82 810.7
20181120105614 27 206 20.0 23.0 0.00 0.01 0.00 83 810.7
20181120105413 28 201 18.0 22.0 0.00 0.01 0.00 81 810.7
20181120105313 28 195 21.0 23.0 0.00 0.01 0.00 82 810.6
20181120105113 28 203 22.0 23.0 0.00 0.01 0.00 80 810.6
20181120105013 28 212 29.0 31.0 0.00 0.01 0.00 82 810.5
20181120104913 28 208 19.0 23.0 0.00 0.01 0.00 81 810.6
20181120104813 28 205 22.0 27.0 0.00 0.01 0.00 82 810.7
20181120104713 28 202 18.0 21.0 0.00 0.01 0.00 82 810.7
20181120104613 28 207 17.0 19.0 0.00 0.01 0.00 82 810.9
20181120104513 28 197 20.0 24.0 0.00 0.01 0.00 81 810.7
20181120104413 28 210 23.0 26.0 0.00 0.01 0.00 82 810.5
20181120104313 28 204 23.0 27.0 0.00 0.01 0.00 82 810.5
20181120104213 28 215 25.0 27.0 0.00 0.01 0.00 82 810.6
20181120104113 28 192 23.0 26.0 0.00 0.01 0.00 83 810.6
20181120104013 27 198 21.0 23.0 0.00 0.01 0.00 83 810.6
20181120103913 27 185 21.0 24.0 0.00 0.01 0.00 83 810.7
20181120103813 27 198 20.0 22.0 0.00 0.01 0.00 84 810.7
20181120103713 26 202 20.0 22.0 0.00 0.01 0.00 84 810.6
20181120103613 26 193 21.0 24.0 0.00 0.01 0.00 84 810.7
20181120103513 26 189 23.0 25.0 0.00 0.01 0.00 84 810.7
20181120103413 27 198 21.0 22.0 0.00 0.01 0.00 84 810.7
20181120103213 26 189 22.0 24.0 0.00 0.01 0.00 83 810.7
20181120103113 26 192 20.0 22.0 0.00 0.01 0.00 83 810.7
20181120103013 26 189 22.0 23.0 0.00 0.01 0.00 83 810.9
20181120102913 26 199 21.0 22.0 0.00 0.01 0.00 83 810.7
20181120102813 26 190 23.0 25.0 0.00 0.01 0.00 83 810.7
20181120102713 26 177 23.0 28.0 0.00 0.01 0.00 84 810.9
20181120102613 26 184 24.0 26.0 0.00 0.01 0.00 85 810.7
20181120102513 26 196 21.0 24.0 0.00 0.01 0.00 86 810.7
20181120102413 25 196 21.0 24.0 0.00 0.01 0.00 89 810.7
20181120102312 25 207 19.0 21.0 0.00 0.01 0.00 88 810.7
20181120102213 26 203 17.0 20.0 0.00 0.01 0.00 88 810.9
20181120102013 26 215 21.0 24.0 0.00 0.01 0.00 86 810.9
20181120101913 26 196 17.0 19.0 0.00 0.01 0.00 85 810.9
20181120101813 26 208 25.0 29.0 0.00 0.01 0.00 84 810.7
20181120101713 26 189 21.0 22.0 0.00 0.01 0.00 84 810.9
20181120101613 26 195 22.0 24.0 0.00 0.01 0.00 84 810.9
20181120101513 26 197 22.0 23.0 0.00 0.01 0.00 85 810.7
20181120101413 26 196 23.0 24.0 0.00 0.01 0.00 83 810.9
20181120101312 26 192 22.0 23.0 0.00 0.01 0.00 85 810.9
20181120101213 26 187 20.0 24.0 0.00 0.01 0.00 85 810.9
20181120101012 25 193 19.0 21.0 0.00 0.01 0.00 88 810.9
20181120100912 25 197 19.0 21.0 0.00 0.01 0.00 88 810.9
20181120100812 26 190 20.0 22.0 0.00 0.01 0.00 87 810.9
20181120100713 26 195 18.0 20.0 0.00 0.01 0.00 87 811.0
20181120100614 26 196 17.0 19.0 0.00 0.01 0.00 86 811.0
20181120100513 26 202 22.0 25.0 0.00 0.01 0.00 84 810.9
20181120100413 27 193 21.0 23.0 0.00 0.01 0.00 83 810.9
20181120100312 27 192 20.0 22.0 0.00 0.01 0.00 82 810.9
20181120100112 27 198 23.0 27.0 0.00 0.01 0.00 82 810.9
20181120100012 26 198 25.0 27.0 0.00 0.01 0.00 82 810.9
20181120095913 26 199 18.0 19.0 0.00 0.01 0.00 82 810.9
20181120095813 26 186 22.0 25.0 0.00 0.01 0.00 82 810.9
20181120095713 26 193 21.0 22.0 0.00 0.01 0.00 84 811.0
20181120095613 27 200 21.0 24.0 0.00 0.01 0.00 82 810.9
20181120095513 27 191 21.0 24.0 0.00 0.01 0.00 80 810.9
20181120095413 27 197 19.0 19.0 0.00 0.01 0.00 80 811.1
20181120095312 27 204 21.0 24.0 0.00 0.01 0.00 82 811.0
20181120095213 27 194 23.0 26.0 0.00 0.01 0.00 81 811.1
20181120095113 26 205 23.0 25.0 0.00 0.01 0.00 83 810.9
20181120095013 26 201 18.0 21.0 0.00 0.01 0.00 83 811.1
20181120094914 26 203 24.0 27.0 0.00 0.01 0.00 83 811.0
20181120094812 26 193 22.0 24.0 0.00 0.01 0.00 84 811.1
20181120094712 26 193 19.0 22.0 0.00 0.01 0.00 85 811.1
20181120094612 26 198 20.0 23.0 0.00 0.01 0.00 84 811.1
20181120094513 26 205 21.0 25.0 0.00 0.01 0.00 84 811.1
20181120094412 26 199 15.0 16.0 0.00 0.01 0.00 83 811.3
20181120094312 26 206 21.0 23.0 0.00 0.01 0.00 86 811.0
20181120094212 26 200 18.0 20.0 0.00 0.01 0.00 86 811.1
20181120094012 26 204 18.0 20.0 0.00 0.01 0.00 85 811.1
20181120093912 26 199 17.0 19.0 0.00 0.01 0.00 85 811.1
20181120093812 25 203 21.0 22.0 0.00 0.01 0.00 86 811.0
20181120093712 25 195 17.0 18.0 0.00 0.01 0.00 88 811.1
20181120093612 25 201 14.0 15.0 0.00 0.01 0.00 88 811.3
20181120093512 26 191 18.0 20.0 0.00 0.01 0.00 86 811.3
20181120093412 26 195 19.0 20.0 0.00 0.01 0.00 86 811.1
20181120093312 26 201 18.0 19.0 0.00 0.01 0.00 84 811.1
20181120093213 27 203 17.0 18.0 0.00 0.01 0.00 82 811.1
20181120093013 27 187 20.0 23.0 0.00 0.01 0.00 81 811.1
20181120092914 27 199 20.0 22.0 0.00 0.01 0.00 81 811.0
20181120092812 27 200 19.0 22.0 0.00 0.01 0.00 82 811.1
20181120092712 27 188 19.0 22.0 0.00 0.01 0.00 80 811.3
20181120092613 27 193 22.0 25.0 0.00 0.01 0.00 79 811.1
20181120092512 27 200 20.0 22.0 0.00 0.01 0.00 81 811.1
20181120092412 27 192 15.0 19.0 0.00 0.01 0.00 82 811.3
20181120092312 27 191 18.0 20.0 0.00 0.01 0.00 81 811.3
20181120092212 27 192 16.0 19.0 0.00 0.01 0.00 80 811.3
20181120092112 27 197 16.0 19.0 0.00 0.01 0.00 79 811.3
20181120092012 27 208 21.0 25.0 0.00 0.01 0.00 79 811.0
20181120091912 27 204 20.0 22.0 0.00 0.01 0.00 81 811.1
20181120091812 27 200 19.0 24.0 0.00 0.01 0.00 80 811.0
20181120091712 27 197 20.0 24.0 0.00 0.01 0.00 81 811.1
20181120091617 27 202 23.0 26.0 0.00 0.01 0.00 78 811.0
20181120091512 27 198 21.0 25.0 0.00 0.01 0.00 80 811.0
20181120091414 27 198 20.0 22.0 0.00 0.01 0.00 82 811.0
20181120091314 26 203 19.0 22.0 0.00 0.01 0.00 82 811.1
20181120091213 26 202 16.0 19.0 0.00 0.01 0.00 84 811.3
20181120091114 27 204 19.0 23.0 0.00 0.01 0.00 82 811.1
20181120090912 27 192 18.0 21.0 0.00 0.01 0.00 80 811.1
20181120090812 26 209 17.0 21.0 0.00 0.01 0.00 84 811.3
20181120090712 27 198 15.0 17.0 0.00 0.01 0.00 83 811.3
20181120090612 27 212 20.0 22.0 0.00 0.01 0.00 81 811.1
20181120090512 27 200 18.0 21.0 0.00 0.01 0.00 79 811.1
20181120090413 27 202 18.0 21.0 0.00 0.01 0.00 81 811.1
20181120090314 27 200 19.0 22.0 0.00 0.01 0.00 78 811.0
20181120090214 27 193 16.0 19.0 0.00 0.01 0.00 78 811.3
20181120090112 27 197 15.0 17.0 0.00 0.01 0.00 79 811.1
20181120090014 27 204 18.0 22.0 0.00 0.01 0.00 78 811.1
20181120085812 27 206 20.0 21.0 0.00 0.01 0.00 79 811.0
20181120085713 27 208 16.0 17.0 0.00 0.01 0.00 79 811.0
20181120085513 27 211 23.0 25.0 0.00 0.01 0.00 76 811.0
20181120085314 27 212 18.0 23.0 0.00 0.01 0.00 77 811.1
20181120085213 27 203 19.0 23.0 0.00 0.01 0.00 78 811.0
20181120085113 26 210 20.0 24.0 0.00 0.01 0.00 80 810.9
20181120084913 26 204 19.0 21.0 0.00 0.01 0.00 85 811.0
20181120084814 26 203 17.0 18.0 0.00 0.01 0.00 84 811.1
20181120084713 26 199 19.0 21.0 0.00 0.01 0.00 85 811.0
20181120084613 26 193 18.0 20.0 0.00 0.01 0.00 85 811.1
20181120084414 26 200 23.0 24.0 0.00 0.01 0.00 83 811.0
20181120084314 26 200 21.0 23.0 0.00 0.01 0.00 83 811.0
20181120084215 27 201 22.0 26.0 0.00 0.01 0.00 81 811.1
20181120084114 26 203 21.0 23.0 0.00 0.01 0.00 81 811.0
20181120083913 26 197 18.0 21.0 0.00 0.01 0.00 84 811.1
20181120083813 26 202 15.0 17.0 0.00 0.01 0.00 85 811.1
20181120083713 26 191 19.0 23.0 0.00 0.01 0.00 86 811.1
20181120083513 26 189 17.0 19.0 0.00 0.01 0.00 85 811.3
20181120083413 26 185 17.0 20.0 0.00 0.01 0.00 85 811.3
20181120083213 27 206 16.0 18.0 0.00 0.01 0.00 84 811.3
20181120083012 27 198 13.0 15.0 0.00 0.01 0.00 82 811.3
20181120082912 28 195 15.0 17.0 0.00 0.01 0.00 81 811.3
20181120082612 28 195 13.0 15.0 0.00 0.01 0.00 78 811.3
20181120082513 28 205 17.0 19.0 0.00 0.01 0.00 77 811.3
20181120082413 27 208 17.0 19.0 0.00 0.01 0.00 78 811.3
20181120082312 27 213 21.0 22.0 0.00 0.01 0.00 80 811.3
20181120082113 27 201 18.0 19.0 0.00 0.01 0.00 83 811.3
20181120082012 27 202 18.0 20.0 0.00 0.01 0.00 84 811.3
20181120081813 27 197 15.0 16.0 0.00 0.01 0.00 84 811.3
20181120081713 27 198 17.0 19.0 0.00 0.01 0.00 83 811.3
20181120081613 27 187 22.0 23.0 0.00 0.01 0.00 81 811.3
20181120081513 27 200 17.0 20.0 0.00 0.01 0.00 82 811.3
20181120081312 27 194 15.0 18.0 0.00 0.01 0.00 85 811.3
20181120081111 27 198 14.0 17.0 0.00 0.01 0.00 83 811.3
20181120081011 28 187 14.0 16.0 0.00 0.01 0.00 82 811.3
20181120080911 28 194 17.0 18.0 0.00 0.01 0.00 82 811.3
20181120080811 28 210 21.0 22.0 0.00 0.01 0.00 80 811.0
20181120080713 27 210 19.0 20.0 0.00 0.01 0.00 82 811.0
20181120080614 27 213 18.0 21.0 0.00 0.01 0.00 82 811.0
20181120080514 27 205 15.0 19.0 0.00 0.01 0.00 84 811.3
20181120080413 27 201 15.0 15.0 0.00 0.01 0.00 85 811.3
20181120080211 26 189 15.0 16.0 0.00 0.01 0.00 87 811.3
20181120080111 26 195 15.0 16.0 0.00 0.01 0.00 88 811.1
20181120080011 25 201 15.0 16.0 0.00 0.01 0.00 89 811.1
20181120075911 26 194 15.0 17.0 0.00 0.01 0.00 89 811.3
20181120075811 26 197 14.0 15.0 0.00 0.01 0.00 88 811.3
20181120075711 26 197 14.0 15.0 0.00 0.01 0.00 88 811.3
20181120075511 26 199 15.0 18.0 0.00 0.01 0.00 88 811.3
20181120075411 26 194 15.0 16.0 0.00 0.01 0.00 88 811.1
20181120075311 25 192 18.0 20.0 0.00 0.01 0.00 89 811.1
20181120075213 25 198 16.0 17.0 0.00 0.01 0.00 90 811.1
20181120075112 25 195 15.0 17.0 0.00 0.01 0.00 91 811.3
20181120074913 25 188 16.0 18.0 0.00 0.01 0.00 90 811.1
20181120074813 25 202 15.0 16.0 0.00 0.01 0.00 90 811.3
20181120074612 25 185 17.0 19.0 0.00 0.01 0.00 90 811.3
20181120074511 25 195 17.0 18.0 0.00 0.01 0.00 90 811.3
20181120074411 25 193 17.0 19.0 0.00 0.01 0.00 90 811.3
20181120074311 25 194 16.0 17.0 0.00 0.01 0.00 90 811.3
20181120074211 25 193 17.0 17.0 0.00 0.01 0.00 90 811.3
20181120074111 25 190 18.0 20.0 0.00 0.01 0.00 90 811.3
20181120074010 25 186 15.0 17.0 0.00 0.01 0.00 90 811.3
20181120073911 25 193 16.0 17.0 0.00 0.01 0.00 89 811.3
20181120073811 26 198 13.0 15.0 0.00 0.01 0.00 88 811.3
20181120073710 26 194 13.0 15.0 0.00 0.01 0.00 88 811.3
20181120073611 26 202 17.0 18.0 0.00 0.01 0.00 88 811.3
20181120073511 26 197 16.0 17.0 0.00 0.01 0.00 88 811.1
20181120073411 26 206 15.0 17.0 0.00 0.01 0.00 87 811.1
20181120073311 26 195 15.0 16.0 0.00 0.01 0.00 88 811.3
20181120073212 26 199 12.0 14.0 0.00 0.01 0.00 87 811.3
20181120073112 26 186 13.0 14.0 0.00 0.01 0.00 87 811.3
20181120073012 26 193 14.0 15.0 0.00 0.01 0.00 86 811.3
20181120072810 26 190 17.0 18.0 0.00 0.01 0.00 85 811.3
20181120072710 26 196 15.0 16.0 0.00 0.01 0.00 85 811.3
20181120072610 26 193 16.0 18.0 0.00 0.01 0.00 85 811.1
20181120072513 27 194 17.0 18.0 0.00 0.01 0.00 84 811.3
20181120072410 27 188 17.0 18.0 0.00 0.01 0.00 84 811.3
20181120072310 26 196 16.0 17.0 0.00 0.01 0.00 84 811.3
20181120072210 26 191 16.0 17.0 0.00 0.01 0.00 84 811.3
20181120072111 26 197 15.0 17.0 0.00 0.01 0.00 84 811.1
20181120072011 26 202 15.0 17.0 0.00 0.01 0.00 85 811.1
20181120071910 26 200 15.0 16.0 0.00 0.01 0.00 86 811.1
20181120071810 26 198 15.0 16.0 0.00 0.01 0.00 86 811.1
20181120071711 26 204 15.0 16.0 0.00 0.01 0.00 86 811.3
20181120071610 26 198 14.0 15.0 0.00 0.01 0.00 84 811.3
20181120071510 26 201 15.0 16.0 0.00 0.01 0.00 83 811.3
20181120071411 27 204 14.0 15.0 0.00 0.01 0.00 82 811.3
20181120071311 27 196 13.0 15.0 0.00 0.01 0.00 81 811.3
20181120071211 28 192 14.0 15.0 0.00 0.01 0.00 80 811.3
20181120071111 28 189 15.0 18.0 0.00 0.01 0.00 79 811.3
20181120071011 29 203 16.0 18.0 0.00 0.01 0.00 74 811.1
20181120070911 29 200 15.0 17.0 0.00 0.01 0.00 73 811.3
20181120070810 29 201 16.0 18.0 0.00 0.01 0.00 71 811.3
20181120070710 29 194 15.0 15.0 0.00 0.01 0.00 71 811.3
20181120070610 29 195 19.0 21.0 0.00 0.01 0.00 69 811.3
20181120070511 29 213 18.0 21.0 0.00 0.01 0.00 73 811.3
20181120070411 29 202 18.0 20.0 0.00 0.01 0.00 74 811.3
20181120070310 29 210 18.0 20.0 0.00 0.01 0.00 73 811.3
20181120070210 29 202 15.0 18.0 0.00 0.01 0.00 70 811.3
20181120070110 29 192 17.0 18.0 0.00 0.01 0.00 70 811.3
20181120070010 29 201 15.0 16.0 0.00 0.01 0.00 73 811.3
20181120065910 29 177 15.0 19.0 0.00 0.01 0.00 72 811.3
20181120065810 29 194 13.0 14.0 0.00 0.01 0.00 72 811.3
20181120065710 30 205 17.0 18.0 0.00 0.01 0.00 70 811.3
20181120065611 30 205 16.0 18.0 0.00 0.01 0.00 67 811.3
20181120065510 30 209 19.0 20.0 0.00 0.01 0.00 67 811.3
20181120065410 29 204 17.0 18.0 0.00 0.01 0.00 68 811.3
20181120065310 29 202 17.0 19.0 0.00 0.01 0.00 70 811.3
20181120065210 28 205 15.0 15.0 0.00 0.01 0.00 76 811.3
20181120065114 28 202 15.0 16.0 0.00 0.01 0.00 75 811.3
20181120065012 29 198 12.0 13.0 0.00 0.01 0.00 75 811.4
20181120064910 29 206 13.0 15.0 0.00 0.01 0.00 74 811.4
20181120064810 30 189 12.0 13.0 0.00 0.01 0.00 68 811.4
20181120064710 30 206 17.0 19.0 0.00 0.01 0.00 68 811.3
20181120064610 30 204 17.0 17.0 0.00 0.01 0.00 68 811.3
20181120064510 30 206 15.0 16.0 0.00 0.01 0.00 70 811.3
20181120064410 30 204 15.0 16.0 0.00 0.01 0.00 67 811.3
20181120064313 30 204 15.0 16.0 0.00 0.01 0.00 67 811.3
20181120064210 30 204 16.0 17.0 0.00 0.01 0.00 67 811.3
20181120064110 29 206 16.0 16.0 0.00 0.01 0.00 68 811.3
20181120064010 28 205 17.0 17.0 0.00 0.01 0.00 70 811.3
20181120063910 28 199 11.0 13.0 0.00 0.01 0.00 76 811.4
20181120063810 28 199 12.0 13.0 0.00 0.01 0.00 76 811.3
20181120063710 28 194 13.0 14.0 0.00 0.01 0.00 75 811.4
20181120063610 29 202 12.0 14.0 0.00 0.01 0.00 74 811.3
20181120063510 29 195 12.0 13.0 0.00 0.01 0.00 73 811.4
20181120063310 29 198 12.0 12.0 0.00 0.01 0.00 70 811.4
20181120063210 29 199 11.0 14.0 0.00 0.01 0.00 70 811.4
20181120063110 29 200 10.0 11.0 0.00 0.01 0.00 70 811.4
20181120063010 30 205 11.0 13.0 0.00 0.01 0.00 69 811.4
20181120062910 30 199 11.0 12.0 0.00 0.01 0.00 68 811.5
20181120062810 30 201 13.0 13.0 0.00 0.01 0.00 68 811.4
20181120062710 30 202 15.0 16.0 0.00 0.01 0.00 67 811.4
20181120062610 30 203 14.0 15.0 0.00 0.01 0.00 67 811.4
20181120062510 30 202 11.0 12.0 0.00 0.01 0.00 68 811.5
20181120062410 30 202 10.0 11.0 0.00 0.01 0.00 68 811.5
20181120062313 30 198 11.0 12.0 0.00 0.01 0.00 68 811.5
20181120062112 30 202 12.0 14.0 0.00 0.01 0.00 67 811.5
20181120062010 30 202 13.0 14.0 0.00 0.01 0.00 67 811.5
20181120061910 30 203 14.0 14.0 0.00 0.01 0.00 67 811.4
20181120061810 30 203 13.0 15.0 0.00 0.01 0.00 67 811.4
20181120061711 30 207 13.0 15.0 0.00 0.01 0.00 68 811.4
20181120061610 30 204 13.0 14.0 0.00 0.01 0.00 68 811.4
20181120061512 30 200 14.0 15.0 0.00 0.01 0.00 68 811.4
20181120061410 29 199 13.0 14.0 0.00 0.01 0.00 70 811.4
20181120061310 29 203 11.0 12.0 0.00 0.01 0.00 70 811.4
20181120061212 30 201 12.0 14.0 0.00 0.01 0.00 70 811.4
20181120061113 30 206 13.0 14.0 0.00 0.01 0.00 70 811.4
20181120061012 29 202 15.0 16.0 0.00 0.01 0.00 70 811.4
20181120060910 29 200 16.0 17.0 0.00 0.01 0.00 70 811.4
20181120060810 28 200 15.0 16.0 0.00 0.01 0.00 72 811.4
20181120060710 28 200 11.0 12.0 0.00 0.01 0.00 74 811.4
20181120060610 28 190 11.0 12.0 0.00 0.01 0.00 75 811.5
20181120060510 28 191 10.0 11.0 0.00 0.01 0.00 76 811.5
20181120060410 28 187 9.0 10.0 0.00 0.01 0.00 76 811.5
20181120060310 28 199 8.0 9.0 0.00 0.01 0.00 75 811.5
20181120060211 28 198 8.0 9.0 0.00 0.01 0.00 75 811.5
20181120060112 28 195 8.0 9.0 0.00 0.01 0.00 76 811.4
20181120060012 29 206 9.0 10.0 0.00 0.01 0.00 76 811.4
20181120055812 29 208 13.0 14.0 0.00 0.01 0.00 73 811.3
20181120055712 29 201 15.0 17.0 0.00 0.01 0.00 72 811.3
20181120055612 29 204 14.0 15.0 0.00 0.01 0.00 73 811.3
20181120055310 28 203 13.0 15.0 0.00 0.01 0.00 76 811.3
20181120055210 28 201 13.0 14.0 0.00 0.01 0.00 76 811.3
20181120055110 28 200 13.0 15.0 0.00 0.01 0.00 77 811.3
20181120055010 28 199 12.0 13.0 0.00 0.01 0.00 77 811.3
20181120054910 28 201 14.0 14.0 0.00 0.01 0.00 78 811.3
20181120054810 27 186 11.0 11.0 0.00 0.01 0.00 80 811.4
20181120054710 27 194 10.0 11.0 0.00 0.01 0.00 84 811.4
20181120054610 27 176 10.0 11.0 0.00 0.01 0.00 84 811.4
20181120054510 27 187 8.0 9.0 0.00 0.01 0.00 83 811.4
20181120054413 27 183 10.0 10.0 0.00 0.01 0.00 82 811.4
20181120054311 27 196 10.0 11.0 0.00 0.01 0.00 82 811.4
20181120054212 27 175 10.0 11.0 0.00 0.01 0.00 80 811.3
20181120054012 27 198 13.0 15.0 0.00 0.01 0.00 79 811.3
20181120053711 27 184 12.0 14.0 0.00 0.01 0.00 82 811.3
20181120053512 27 190 10.0 12.0 0.00 0.01 0.00 83 811.3
20181120053312 27 194 10.0 11.0 0.00 0.01 0.00 82 811.3
20181120053213 28 198 10.0 10.0 0.00 0.01 0.00 82 811.3
20181120053109 27 197 11.0 12.0 0.00 0.01 0.00 81 811.3
20181120053010 27 204 12.0 13.0 0.00 0.01 0.00 82 811.3
20181120052810 27 191 11.0 12.0 0.00 0.01 0.00 84 811.3
20181120052709 27 184 10.0 11.0 0.00 0.01 0.00 85 811.3
20181120052610 27 183 10.0 10.0 0.00 0.01 0.00 86 811.3
20181120052510 27 188 9.0 10.0 0.00 0.01 0.00 85 811.3
20181120052410 27 174 9.0 10.0 0.00 0.01 0.00 84 811.3
20181120052312 27 185 10.0 10.0 0.00 0.01 0.00 86 811.3
20181120052109 27 185 9.0 9.0 0.00 0.01 0.00 86 811.1
20181120052009 27 188 8.0 9.0 0.00 0.01 0.00 85 811.3
20181120051909 27 193 9.0 10.0 0.00 0.01 0.00 85 811.1
20181120051809 27 196 10.0 10.0 0.00 0.01 0.00 85 811.1
20181120051711 27 181 11.0 12.0 0.00 0.01 0.00 85 811.1
20181120051611 27 181 11.0 11.0 0.00 0.01 0.00 85 811.1
20181120051513 27 179 9.0 10.0 0.00 0.01 0.00 86 811.1
20181120051412 27 184 9.0 9.0 0.00 0.01 0.00 86 811.1
20181120051212 26 177 9.0 10.0 0.00 0.01 0.00 86 811.1
20181120051112 26 183 9.0 9.0 0.00 0.01 0.00 86 811.1
20181120050911 26 178 8.0 9.0 0.00 0.01 0.00 86 811.1
20181120050711 27 186 7.0 8.0 0.00 0.01 0.00 86 811.1
20181120050612 27 178 8.0 10.0 0.00 0.01 0.00 86 811.1
20181120050511 27 177 8.0 9.0 0.00 0.01 0.00 86 811.0
20181120050411 27 170 9.0 10.0 0.00 0.01 0.00 85 811.1
20181120050312 27 170 8.0 8.0 0.00 0.01 0.00 85 811.0
20181120050212 27 169 8.0 8.0 0.00 0.01 0.00 85 811.0
20181120050110 27 170 8.0 8.0 0.00 0.01 0.00 86 811.0
20181120050010 27 171 8.0 9.0 0.00 0.01 0.00 86 811.0
20181120045510 27 176 8.0 9.0 0.00 0.01 0.00 85 811.0
20181120045308 27 163 8.0 8.0 0.00 0.01 0.00 85 810.9
20181120045208 27 165 7.0 8.0 0.00 0.01 0.00 85 810.9
20181120045108 27 162 7.0 7.0 0.00 0.01 0.00 85 810.9
20181120045008 27 170 5.0 6.0 0.00 0.01 0.00 85 810.9
20181120044908 27 171 6.0 6.0 0.00 0.01 0.00 85 810.9
20181120044808 27 166 5.0 6.0 0.00 0.01 0.00 85 810.9
20181120044708 28 164 6.0 6.0 0.00 0.01 0.00 85 810.9
20181120044608 28 164 6.0 7.0 0.00 0.01 0.00 84 810.9
20181120044508 28 177 6.0 7.0 0.00 0.01 0.00 84 810.9
20181120044408 28 180 7.0 7.0 0.00 0.01 0.00 84 810.9
20181120044309 28 182 7.0 7.0 0.00 0.01 0.00 84 810.9
20181120044208 28 197 8.0 8.0 0.00 0.01 0.00 85 810.9
20181120044108 28 199 8.0 8.0 0.00 0.01 0.00 85 810.9
20181120044008 28 201 8.0 8.0 0.00 0.01 0.00 85 810.9
20181120043908 28 203 7.0 8.0 0.00 0.01 0.00 85 810.9
20181120043808 28 206 8.0 8.0 0.00 0.01 0.00 86 810.9
20181120043708 28 210 7.0 8.0 0.00 0.01 0.00 86 810.9
20181120043608 28 215 9.0 10.0 0.00 0.01 0.00 86 810.9
20181120043508 28 215 9.0 9.0 0.00 0.01 0.00 86 810.9
20181120043408 28 213 9.0 9.0 0.00 0.01 0.00 87 810.9
20181120043308 28 211 8.0 9.0 0.00 0.01 0.00 87 810.7
20181120043209 27 211 8.0 8.0 0.00 0.01 0.00 87 810.7
20181120043108 27 210 7.0 7.0 0.00 0.01 0.00 87 810.9
20181120043008 27 211 6.0 7.0 0.00 0.01 0.00 87 810.9
20181120042908 27 207 7.0 7.0 0.00 0.01 0.00 87 810.9
20181120042808 27 183 7.0 7.0 0.00 0.01 0.00 87 810.9
20181120042708 27 195 8.0 8.0 0.00 0.01 0.00 86 810.9
20181120042609 27 199 7.0 8.0 0.00 0.01 0.00 87 810.9
20181120042508 27 200 8.0 8.0 0.00 0.01 0.00 87 810.9
20181120042408 27 205 7.0 8.0 0.00 0.01 0.00 87 810.9
20181120042308 27 212 8.0 8.0 0.00 0.01 0.00 87 810.9
20181120042209 27 210 7.0 7.0 0.00 0.01 0.00 88 810.9
20181120042108 27 206 7.0 7.0 0.00 0.01 0.00 88 810.9
20181120042008 27 201 7.0 7.0 0.00 0.01 0.00 88 810.9
20181120041908 27 201 7.0 7.0 0.00 0.01 0.00 88 810.9
20181120041808 27 197 6.0 7.0 0.00 0.01 0.00 88 810.9
20181120041708 27 189 5.0 6.0 0.00 0.01 0.00 88 810.9
20181120041608 27 192 5.0 6.0 0.00 0.01 0.00 88 810.9
20181120041508 27 195 6.0 6.0 0.00 0.01 0.00 89 810.9
20181120041409 27 200 6.0 6.0 0.00 0.01 0.00 89 810.9
20181120041308 27 203 6.0 6.0 0.00 0.01 0.00 88 810.9
20181120041208 27 196 6.0 6.0 0.00 0.01 0.00 88 810.9
20181120041108 27 194 6.0 8.0 0.00 0.01 0.00 88 810.9
20181120041008 27 196 7.0 7.0 0.00 0.01 0.00 89 810.9
20181120040908 27 209 6.0 7.0 0.00 0.01 0.00 89 810.9
20181120040808 27 214 9.0 9.0 0.00 0.01 0.00 89 810.9
20181120040708 27 214 7.0 8.0 0.00 0.01 0.00 89 810.9
20181120040608 27 212 7.0 7.0 0.00 0.01 0.00 89 810.9
20181120040408 27 205 6.0 6.0 0.00 0.01 0.00 90 810.9
20181120040308 27 206 6.0 6.0 0.00 0.01 0.00 90 810.9
20181120040208 26 201 5.0 5.0 0.00 0.01 0.00 90 810.9
20181120040108 26 197 4.0 4.0 0.00 0.01 0.00 90 810.9
20181120040008 26 206 4.0 4.0 0.00 0.01 0.00 90 810.9
20181120035908 26 209 4.0 4.0 0.00 0.01 0.00 90 810.9
20181120035809 26 209 5.0 5.0 0.00 0.01 0.00 90 810.9
20181120035708 26 216 5.0 6.0 0.00 0.01 0.00 90 810.9
20181120035608 26 224 5.0 6.0 0.00 0.01 0.00 90 810.9
20181120035508 26 224 6.0 6.0 0.00 0.01 0.00 90 810.9
20181120035408 26 226 6.0 6.0 0.00 0.01 0.00 90 810.9
20181120035308 26 230 4.0 5.0 0.00 0.01 0.00 90 810.9
20181120035208 26 237 4.0 5.0 0.00 0.01 0.00 90 810.9
20181120035108 26 235 4.0 5.0 0.00 0.01 0.00 90 810.9
20181120035008 26 245 5.0 5.0 0.00 0.01 0.00 90 810.9
20181120034908 26 232 4.0 4.0 0.00 0.01 0.00 90 810.9
20181120034808 26 227 3.0 4.0 0.00 0.01 0.00 90 810.9
20181120034708 26 234 4.0 4.0 0.00 0.01 0.00 90 810.9
20181120034608 26 227 4.0 5.0 0.00 0.01 0.00 90 810.9
20181120034508 26 222 4.0 5.0 0.00 0.01 0.00 90 810.9
20181120034408 26 235 4.0 5.0 0.00 0.01 0.00 90 810.9
20181120034308 26 231 4.0 5.0 0.00 0.01 0.00 90 810.9
20181120034208 26 231 4.0 6.0 0.00 0.01 0.00 90 810.9
20181120034108 26 239 4.0 4.0 0.00 0.01 0.00 90 810.9
20181120034008 26 248 4.0 4.0 0.00 0.01 0.00 90 810.9
20181120033908 26 264 4.0 5.0 0.00 0.01 0.00 90 810.9
20181120033808 26 259 4.0 5.0 0.00 0.01 0.00 90 810.9
20181120033708 26 252 3.0 4.0 0.00 0.01 0.00 90 810.9
20181120033608 26 236 3.0 3.0 0.00 0.01 0.00 90 810.9
20181120033508 26 224 4.0 5.0 0.00 0.01 0.00 90 810.9
20181120033408 26 235 4.0 4.0 0.00 0.01 0.00 90 810.9
20181120033308 26 241 4.0 5.0 0.00 0.01 0.00 90 810.9
20181120033208 26 235 4.0 5.0 0.00 0.01 0.00 90 810.9
20181120033108 26 234 5.0 6.0 0.00 0.01 0.00 90 810.9
20181120033008 26 238 5.0 6.0 0.00 0.01 0.00 90 810.9
20181120032908 26 223 6.0 8.0 0.00 0.01 0.00 90 810.9
20181120032808 26 228 6.0 8.0 0.00 0.01 0.00 90 810.7
20181120032708 26 234 7.0 8.0 0.00 0.01 0.00 90 810.7
20181120032608 26 231 9.0 10.0 0.00 0.01 0.00 90 810.7
20181120032508 26 235 8.0 9.0 0.00 0.01 0.00 90 810.7
20181120032408 26 234 6.0 7.0 0.00 0.01 0.00 90 810.9
20181120032308 26 231 7.0 8.0 0.00 0.01 0.00 90 810.7
20181120032208 26 233 8.0 9.0 0.00 0.01 0.00 90 810.7
20181120032108 26 234 9.0 10.0 0.00 0.01 0.00 90 810.9
20181120032009 26 217 8.0 9.0 0.00 0.01 0.00 90 810.7
20181120031908 26 221 8.0 9.0 0.00 0.01 0.00 90 810.7
20181120031808 26 232 7.0 8.0 0.00 0.01 0.00 90 810.7
20181120031708 26 220 6.0 7.0 0.00 0.01 0.00 90 810.7
20181120031608 26 231 7.0 8.0 0.00 0.01 0.00 90 810.7
20181120031508 26 242 8.0 8.0 0.00 0.01 0.00 90 810.7
20181120031408 26 240 7.0 8.0 0.00 0.01 0.00 90 810.7
20181120031308 26 230 6.0 7.0 0.00 0.01 0.00 90 810.7
20181120031108 26 235 6.0 7.0 0.00 0.01 0.00 91 810.7
20181120031008 26 227 8.0 9.0 0.00 0.01 0.00 91 810.7
20181120030908 26 232 7.0 8.0 0.00 0.01 0.00 91 810.7
20181120030808 26 224 8.0 9.0 0.00 0.01 0.00 91 810.7
20181120030708 26 231 8.0 8.0 0.00 0.01 0.00 91 810.7
20181120030608 26 225 11.0 13.0 0.00 0.01 0.00 91 810.6
20181120030508 26 222 9.0 11.0 0.00 0.01 0.00 91 810.6
20181120030408 26 239 10.0 11.0 0.00 0.01 0.00 91 810.5
20181120030308 26 243 9.0 10.0 0.00 0.01 0.00 91 810.5
20181120030208 26 259 10.0 12.0 0.00 0.01 0.00 91 810.5
20181120030108 26 238 9.0 11.0 0.00 0.01 0.00 91 810.5
20181120030008 26 255 8.0 10.0 0.00 0.01 0.00 91 810.5
20181120025908 26 239 8.0 10.0 0.00 0.01 0.00 91 810.5
20181120025808 25 231 7.0 9.0 0.00 0.01 0.00 92 810.5
20181120025708 25 227 9.0 10.0 0.00 0.01 0.00 92 810.5
20181120025608 25 224 9.0 10.0 0.00 0.01 0.00 92 810.5
20181120025508 25 256 12.0 14.0 0.00 0.01 0.00 92 810.5
20181120025408 25 229 9.0 12.0 0.00 0.01 0.00 92 810.5
20181120025308 25 249 8.0 10.0 0.00 0.01 0.00 92 810.5
20181120025208 25 232 8.0 11.0 0.00 0.01 0.00 92 810.5
20181120025108 25 262 11.0 13.0 0.00 0.01 0.00 92 810.5
20181120025008 25 260 12.0 15.0 0.00 0.01 0.00 92 810.5
20181120024908 25 261 12.0 14.0 0.00 0.01 0.00 92 810.5
20181120024808 25 228 10.0 11.0 0.00 0.01 0.00 92 810.5
20181120024708 25 223 9.0 10.0 0.00 0.01 0.00 92 810.5
20181120024608 25 251 9.0 10.0 0.00 0.01 0.00 92 810.5
20181120024508 25 249 12.0 13.0 0.00 0.01 0.00 92 810.5
20181120024409 24 229 11.0 14.0 0.00 0.01 0.00 92 810.5
20181120024308 24 234 10.0 11.0 0.00 0.01 0.00 92 810.5
20181120024208 24 229 11.0 13.0 0.00 0.01 0.00 92 810.5
20181120024108 24 225 9.0 11.0 0.00 0.01 0.00 92 810.5
20181120024008 24 230 11.0 13.0 0.00 0.01 0.00 92 810.5
20181120023908 24 232 11.0 13.0 0.00 0.01 0.00 93 810.5
20181120023808 24 228 11.0 14.0 0.00 0.01 0.00 93 810.5
20181120023708 24 223 10.0 15.0 0.00 0.01 0.00 93 810.3
20181120023608 24 260 13.0 18.0 0.00 0.01 0.00 93 810.5
20181120023508 24 264 17.0 19.0 0.00 0.01 0.00 93 810.5
20181120023408 24 262 17.0 20.0 0.00 0.01 0.00 93 810.3
20181120023308 24 267 16.0 18.0 0.00 0.01 0.00 93 810.3
20181120023208 24 265 19.0 22.0 0.00 0.01 0.00 93 810.5
20181120023108 24 239 10.0 14.0 0.00 0.01 0.00 94 810.3
20181120023008 24 267 15.0 16.0 0.00 0.01 0.00 94 810.3
20181120022908 24 269 14.0 18.0 0.00 0.01 0.00 94 810.5
20181120022808 24 283 16.0 19.0 0.00 0.01 0.00 94 810.5
20181120022708 24 284 15.0 19.0 0.00 0.01 0.00 94 810.3
20181120022608 24 281 17.0 20.0 0.00 0.01 0.00 94 810.3
20181120022508 24 283 18.0 21.0 0.00 0.01 0.00 94 810.3
20181120022408 24 244 8.0 9.0 0.00 0.01 0.00 94 810.3
20181120022308 24 285 19.0 22.0 0.00 0.01 0.00 94 810.3
20181120022208 24 292 9.0 12.0 0.00 0.01 0.00 94 810.2
20181120022108 24 260 12.0 19.0 0.00 0.01 0.00 93 810.2
20181120022008 24 239 9.0 11.0 0.00 0.01 0.00 94 810.2
20181120021908 24 233 11.0 14.0 0.00 0.01 0.00 94 810.2
20181120021808 24 247 9.0 11.0 0.00 0.01 0.00 94 810.2
20181120021708 23 232 8.0 10.0 0.00 0.01 0.00 94 810.2
20181120021608 23 252 11.0 13.0 0.00 0.01 0.00 94 810.1
20181120021508 23 101 21.0 24.0 0.00 0.01 0.00 94 810.2
20181120021408 23 101 21.0 24.0 0.00 0.01 0.00 94 810.1
20181120021308 23 101 21.0 24.0 0.00 0.01 0.00 94 810.1
20181120021208 23 101 21.0 24.0 0.00 0.01 0.00 94 810.2
20181120021108 23 101 21.0 24.0 0.00 0.01 0.00 94 810.1
20181120021008 23 101 21.0 24.0 0.00 0.01 0.00 94 810.1
20181120020808 23 101 21.0 24.0 0.00 0.01 0.00 94 810.1
20181120020708 23 101 21.0 24.0 0.00 0.01 0.00 94 810.1
20181120020608 24 101 21.0 24.0 0.00 0.01 0.00 94 809.9
20181120020508 24 101 21.0 24.0 0.00 0.01 0.00 94 810.1
20181120020408 24 101 21.0 24.0 0.00 0.01 0.00 95 810.1
20181120020308 24 101 21.0 24.0 0.00 0.01 0.00 95 810.1
20181120020208 24 101 21.0 24.0 0.00 0.01 0.00 94 810.1
20181120020108 24 101 21.0 24.0 0.00 0.01 0.00 94 810.1
20181120020008 24 101 21.0 24.0 0.00 0.01 0.00 94 810.1
20181120015908 24 101 21.0 24.0 0.00 0.01 0.00 94 810.1
20181120015808 24 101 21.0 24.0 0.00 0.01 0.00 94 810.1
20181120015708 24 101 21.0 24.0 0.00 0.01 0.00 94 809.9
20181120015608 24 101 21.0 24.0 0.00 0.01 0.00 94 810.1
20181120015508 24 101 21.0 24.0 0.00 0.01 0.00 95 810.1
20181120015408 24 101 21.0 24.0 0.00 0.01 0.00 95 810.1
20181120015308 24 101 21.0 24.0 0.00 0.01 0.00 95 810.1
20181120015208 24 101 21.0 24.0 0.00 0.01 0.00 95 810.1
20181120015108 24 101 21.0 24.0 0.00 0.01 0.00 95 810.1
20181120015008 24 101 21.0 24.0 0.00 0.01 0.00 95 810.1
20181120014908 24 101 21.0 24.0 0.00 0.01 0.00 95 809.9
20181120014808 24 101 21.0 24.0 0.00 0.01 0.00 95 809.9
20181120014708 24 101 21.0 24.0 0.00 0.01 0.00 95 809.9
20181120014608 25 101 21.0 24.0 0.00 0.01 0.00 95 809.9
20181120014508 25 101 21.0 24.0 0.00 0.01 0.00 95 809.9
20181120014408 25 101 21.0 24.0 0.00 0.01 0.00 95 809.9
20181120014308 25 101 21.0 24.0 0.00 0.01 0.00 95 809.9
20181120014208 25 101 21.0 24.0 0.00 0.01 0.00 95 809.9
20181120014108 25 101 21.0 24.0 0.00 0.01 0.00 95 809.9
20181120014008 25 101 21.0 24.0 0.00 0.01 0.00 95 809.9
20181120013908 25 101 21.0 24.0 0.00 0.01 0.00 95 809.9
20181120013808 25 101 21.0 24.0 0.00 0.01 0.00 95 809.9
20181120013708 25 101 21.0 24.0 0.00 0.01 0.00 95 809.9
20181120013608 25 101 21.0 24.0 0.00 0.01 0.00 95 809.8
20181120013508 25 101 21.0 24.0 0.00 0.01 0.00 95 809.8
20181120013408 25 101 21.0 24.0 0.00 0.01 0.00 95 809.8
20181120013308 25 101 21.0 24.0 0.00 0.01 0.00 95 809.8
20181120013208 25 101 21.0 24.0 0.00 0.01 0.00 95 809.8
20181120013108 25 101 21.0 24.0 0.00 0.01 0.00 95 809.8
20181120013008 25 101 21.0 24.0 0.00 0.01 0.00 95 809.8
20181120012908 25 101 21.0 24.0 0.00 0.01 0.00 95 809.8
20181120012808 25 101 21.0 24.0 0.00 0.01 0.00 95 809.8
20181120012708 25 101 21.0 24.0 0.00 0.01 0.00 95 809.8
20181120012508 25 101 21.0 24.0 0.00 0.01 0.00 95 809.8
20181120012408 25 101 21.0 24.0 0.00 0.01 0.00 95 809.7
20181120012308 25 101 21.0 24.0 0.00 0.01 0.00 95 809.7
20181120012208 25 101 21.0 24.0 0.00 0.01 0.00 95 809.7
20181120012108 24 101 21.0 24.0 0.00 0.01 0.00 95 809.7
20181120012008 24 101 21.0 24.0 0.00 0.01 0.00 95 809.7
20181120011908 24 101 21.0 24.0 0.00 0.01 0.00 95 809.7
20181120011808 25 101 21.0 24.0 0.00 0.01 0.00 95 809.7
20181120011708 25 101 21.0 24.0 0.00 0.01 0.00 95 809.7
20181120011608 25 101 21.0 24.0 0.00 0.01 0.00 95 809.7
20181120011508 25 101 21.0 24.0 0.00 0.01 0.00 95 809.7
20181120011408 25 101 21.0 24.0 0.00 0.01 0.00 95 809.7
20181120011308 25 101 21.0 24.0 0.00 0.01 0.00 95 809.7
20181120011208 25 101 21.0 24.0 0.00 0.01 0.00 95 809.7
20181120011108 24 101 21.0 24.0 0.00 0.01 0.00 95 809.7
20181120011008 24 101 21.0 24.0 0.00 0.01 0.00 95 809.7
20181120010907 24 101 21.0 24.0 0.00 0.01 0.00 95 809.7
20181120010808 25 101 21.0 24.0 0.00 0.01 0.00 95 809.7
20181120010708 25 101 21.0 24.0 0.00 0.01 0.00 95 809.7
20181120010608 25 101 21.0 24.0 0.00 0.01 0.00 95 809.7
20181120010508 25 101 21.0 24.0 0.00 0.01 0.00 95 809.7
20181120010407 25 101 21.0 24.0 0.00 0.01 0.00 95 809.7
20181120010308 25 101 21.0 24.0 0.00 0.01 0.00 95 809.7
20181120010208 25 101 21.0 24.0 0.00 0.01 0.00 95 809.7
20181120010108 25 101 21.0 24.0 0.00 0.01 0.00 95 809.7
20181120010008 25 101 21.0 24.0 0.00 0.01 0.00 95 809.7
20181120005908 24 101 21.0 24.0 0.00 0.01 0.00 95 809.5
20181120005808 24 101 21.0 24.0 0.00 0.01 0.00 95 809.5
20181120005708 24 101 21.0 24.0 0.00 0.01 0.00 95 809.5
20181120005608 24 101 21.0 24.0 0.00 0.01 0.00 95 809.5
20181120005508 24 101 21.0 24.0 0.00 0.01 0.00 95 809.5
20181120005408 24 101 21.0 24.0 0.00 0.01 0.00 95 809.5
20181120005308 24 101 21.0 24.0 0.00 0.01 0.00 95 809.5
20181120005207 24 101 21.0 24.0 0.00 0.01 0.00 95 809.5
20181120005107 24 101 21.0 24.0 0.00 0.01 0.00 96 809.5
20181120005008 24 101 21.0 24.0 0.00 0.01 0.00 96 809.5
20181120004908 24 101 21.0 24.0 0.00 0.01 0.00 96 809.5
20181120004808 24 101 21.0 24.0 0.00 0.01 0.00 96 809.5
20181120004708 24 101 21.0 24.0 0.00 0.01 0.00 96 809.4
20181120004608 24 101 21.0 24.0 0.00 0.01 0.00 96 809.5
20181120004508 24 101 21.0 24.0 0.00 0.01 0.00 96 809.5
20181120004408 24 101 21.0 24.0 0.00 0.01 0.00 96 809.5
20181120004308 24 101 21.0 24.0 0.00 0.01 0.00 96 809.5
20181120004208 24 101 21.0 24.0 0.00 0.01 0.00 96 809.7
20181120004108 24 101 21.0 24.0 0.00 0.01 0.00 96 809.7
20181120004008 24 101 21.0 24.0 0.00 0.01 0.00 96 809.7
20181120003908 24 101 21.0 24.0 0.00 0.01 0.00 96 809.4
20181120003808 24 101 21.0 24.0 0.00 0.01 0.00 96 809.5
20181120003708 24 101 21.0 24.0 0.00 0.01 0.00 96 809.5
20181120003608 24 101 21.0 24.0 0.00 0.01 0.00 96 809.7
20181120003508 24 101 21.0 24.0 0.00 0.01 0.00 96 809.7
20181120003408 24 101 21.0 24.0 0.00 0.01 0.00 96 809.4
20181120003208 24 101 21.0 24.0 0.00 0.01 0.00 96 809.5
20181120003108 24 101 21.0 24.0 0.00 0.01 0.00 96 809.5
20181120003008 24 101 21.0 24.0 0.00 0.01 0.00 96 809.4
20181120002908 24 101 21.0 24.0 0.00 0.01 0.00 95 809.4
20181120002808 24 101 21.0 24.0 0.00 0.01 0.00 95 809.4
20181120002708 24 101 21.0 24.0 0.00 0.01 0.00 95 809.5
20181120002607 24 101 21.0 24.0 0.00 0.01 0.00 95 809.5
20181120002508 24 101 21.0 24.0 0.00 0.01 0.00 95 809.7
20181120002407 24 101 21.0 24.0 0.00 0.01 0.00 95 809.7
20181120002307 24 101 21.0 24.0 0.00 0.01 0.00 95 809.7
20181120002207 24 101 21.0 24.0 0.00 0.01 0.00 95 809.7
20181120002108 24 101 21.0 24.0 0.00 0.01 0.00 95 809.7
20181120002008 24 101 21.0 24.0 0.00 0.01 0.00 95 809.7
20181120001908 24 101 21.0 24.0 0.00 0.01 0.00 95 809.7
20181120001808 24 101 21.0 24.0 0.00 0.01 0.00 95 809.7
20181120001708 24 101 21.0 24.0 0.00 0.01 0.00 95 809.7
20181120001608 24 101 21.0 24.0 0.00 0.01 0.00 95 809.7
20181120001507 24 101 21.0 24.0 0.00 0.01 0.00 95 809.7
20181120001408 24 101 21.0 24.0 0.00 0.01 0.00 95 809.7
20181120001308 24 101 21.0 24.0 0.00 0.01 0.00 95 809.7
20181120001208 24 101 21.0 24.0 0.00 0.01 0.00 95 809.5
20181120001107 24 101 21.0 24.0 0.00 0.01 0.00 95 809.7
20181120001007 24 101 21.0 24.0 0.00 0.01 0.00 95 809.5
20181120000908 24 101 21.0 24.0 0.00 0.01 0.00 95 809.5
20181120000808 24 101 21.0 24.0 0.00 0.01 0.00 95 809.5
20181120000707 24 101 21.0 24.0 0.00 0.01 0.00 95 809.4
20181120000607 24 101 21.0 24.0 0.00 0.01 0.00 95 809.4
20181120000511 24 101 21.0 24.0 0.00 0.01 0.00 95 809.4
20181120000408 24 101 21.0 24.0 0.00 0.01 0.00 95 809.4
20181120000307 24 101 21.0 24.0 0.00 0.01 0.00 95 809.3
20181120000208 24 101 21.0 24.0 0.00 0.01 0.00 95 809.3
20181120000108 24 101 21.0 24.0 0.00 0.01 0.00 95 809.4
20181120000008 24 101 21.0 24.0 0.00 0.01 0.00 96 809.3
20181119235908 24 101 21.0 24.0 0.00 0.01 0.00 96 809.3
20181119235808 24 101 21.0 24.0 0.00 0.01 0.00 96 809.3
20181119235708 24 101 21.0 24.0 0.00 0.01 0.00 96 809.4
20181119235607 24 101 21.0 24.0 0.00 0.01 0.00 96 809.3
20181119235507 24 101 21.0 24.0 0.00 0.01 0.00 96 809.3
20181119235408 24 101 21.0 24.0 0.00 0.01 0.00 96 809.3
20181119235308 24 101 21.0 24.0 0.00 0.01 0.00 96 809.4
20181119235208 24 101 21.0 24.0 0.00 0.01 0.00 96 809.4
20181119235108 24 101 21.0 24.0 0.00 0.01 0.00 96 809.4
20181119235007 24 101 21.0 24.0 0.00 0.01 0.00 96 809.4
20181119234908 24 101 21.0 24.0 0.00 0.01 0.00 96 809.4
20181119234807 24 101 21.0 24.0 0.00 0.01 0.00 96 809.4
20181119234709 24 101 21.0 24.0 0.00 0.01 0.00 95 809.4
20181119234608 24 101 21.0 24.0 0.00 0.01 0.00 95 809.4
20181119234508 24 101 21.0 24.0 0.00 0.01 0.00 95 809.4
20181119234408 24 101 21.0 24.0 0.00 0.01 0.00 95 809.4
20181119234307 24 101 21.0 24.0 0.00 0.01 0.00 95 809.4
20181119234208 24 101 21.0 24.0 0.00 0.01 0.00 95 809.4
20181119234107 24 101 21.0 24.0 0.00 0.01 0.00 95 809.4
20181119233908 24 101 21.0 24.0 0.00 0.01 0.00 95 809.3
20181119233808 24 101 21.0 24.0 0.00 0.01 0.00 95 809.3
20181119233708 24 101 21.0 24.0 0.00 0.01 0.00 95 809.3
20181119233607 25 101 21.0 24.0 0.00 0.01 0.00 95 809.3
20181119233507 25 101 21.0 24.0 0.00 0.01 0.00 95 809.3
20181119233408 25 101 21.0 24.0 0.00 0.01 0.00 95 809.1
20181119233308 25 101 21.0 24.0 0.00 0.01 0.00 95 809.1
20181119233207 25 101 21.0 24.0 0.00 0.01 0.00 95 809.0
20181119233108 24 101 21.0 24.0 0.00 0.01 0.00 95 809.0
20181119233007 24 101 21.0 24.0 0.00 0.01 0.00 95 809.0
20181119232907 24 101 21.0 24.0 0.00 0.01 0.00 95 809.0
20181119232807 24 101 21.0 24.0 0.00 0.01 0.00 95 809.0
20181119232707 24 101 21.0 24.0 0.00 0.01 0.00 95 809.1
20181119232608 25 101 21.0 24.0 0.00 0.01 0.00 95 809.1
20181119232508 25 101 21.0 24.0 0.00 0.01 0.00 95 809.1
20181119232407 25 101 21.0 24.0 0.00 0.01 0.00 95 809.1
20181119232307 25 101 21.0 24.0 0.00 0.01 0.00 95 809.1
20181119232207 25 101 21.0 24.0 0.00 0.01 0.00 95 809.1
20181119232107 25 101 21.0 24.0 0.00 0.01 0.00 95 809.0
20181119232007 25 101 21.0 24.0 0.00 0.01 0.00 95 809.0
20181119231907 25 101 21.0 24.0 0.00 0.01 0.00 95 808.9
20181119231807 25 101 21.0 24.0 0.00 0.01 0.00 95 808.9
20181119231707 25 101 21.0 24.0 0.00 0.01 0.00 95 808.9
20181119231607 25 101 21.0 24.0 0.00 0.01 0.00 95 809.0
20181119231508 25 101 21.0 24.0 0.00 0.01 0.00 95 808.9
20181119231407 25 101 21.0 24.0 0.00 0.01 0.00 95 808.9
20181119231307 25 101 21.0 24.0 0.00 0.01 0.00 95 808.9
20181119231207 25 101 21.0 24.0 0.00 0.01 0.00 95 808.9
20181119231107 25 101 21.0 24.0 0.00 0.01 0.00 95 808.9
20181119231007 25 101 21.0 24.0 0.00 0.01 0.00 95 808.9
20181119230907 25 101 21.0 24.0 0.00 0.01 0.00 95 808.9
20181119230807 24 101 21.0 24.0 0.00 0.01 0.00 95 808.9
20181119230708 24 101 21.0 24.0 0.00 0.01 0.00 95 808.9
20181119230607 24 101 21.0 24.0 0.00 0.01 0.00 95 808.9
20181119230507 24 101 21.0 24.0 0.00 0.01 0.00 95 808.7
20181119230407 24 101 21.0 24.0 0.00 0.01 0.00 95 808.9
20181119230307 24 101 21.0 24.0 0.00 0.01 0.00 95 808.9
20181119230207 24 101 21.0 24.0 0.00 0.01 0.00 95 808.9
20181119230107 24 101 21.0 24.0 0.00 0.01 0.00 95 808.7
20181119230007 24 101 21.0 24.0 0.00 0.01 0.00 95 808.9
20181119225908 24 101 21.0 24.0 0.00 0.01 0.00 95 808.7
20181119225807 24 101 21.0 24.0 0.00 0.01 0.00 95 808.6
20181119225707 24 101 21.0 24.0 0.00 0.01 0.00 95 808.6
20181119225607 24 101 21.0 24.0 0.00 0.01 0.00 95 808.6
20181119225507 24 101 21.0 24.0 0.00 0.01 0.00 95 808.6
20181119225407 24 101 21.0 24.0 0.00 0.01 0.00 95 808.6
20181119225307 24 101 21.0 24.0 0.00 0.01 0.00 95 808.6
20181119225207 24 101 21.0 24.0 0.00 0.01 0.00 95 808.6
20181119225107 24 101 21.0 24.0 0.00 0.01 0.00 95 808.7
20181119225008 24 101 21.0 24.0 0.00 0.01 0.00 95 808.6
20181119224907 24 101 21.0 24.0 0.00 0.01 0.00 95 808.6
20181119224807 24 101 21.0 24.0 0.00 0.01 0.00 95 808.6
20181119224608 24 101 21.0 24.0 0.00 0.01 0.00 95 808.7
20181119224508 24 101 21.0 24.0 0.00 0.01 0.00 95 808.6
20181119224407 24 101 21.0 24.0 0.00 0.01 0.00 95 808.7
20181119224307 24 101 21.0 24.0 0.00 0.01 0.00 95 808.7
20181119224207 24 101 21.0 24.0 0.00 0.01 0.00 95 808.7
20181119224107 24 101 21.0 24.0 0.00 0.01 0.00 95 808.7
20181119224007 24 101 21.0 24.0 0.00 0.01 0.00 95 808.6
20181119223907 24 101 21.0 24.0 0.00 0.01 0.00 95 808.6
20181119223807 24 101 21.0 24.0 0.00 0.01 0.00 95 808.6
20181119223707 24 101 21.0 24.0 0.00 0.01 0.00 95 808.5
20181119223607 24 101 21.0 24.0 0.00 0.01 0.00 95 808.5
20181119223507 24 101 21.0 24.0 0.00 0.01 0.00 95 808.5
20181119223407 24 101 21.0 24.0 0.00 0.01 0.00 95 808.5
20181119223307 24 101 21.0 24.0 0.00 0.01 0.00 95 808.5
20181119223207 24 101 21.0 24.0 0.00 0.01 0.00 95 808.5
20181119223107 24 101 21.0 24.0 0.00 0.01 0.00 95 808.3
20181119223007 24 101 21.0 24.0 0.00 0.01 0.00 95 808.5
20181119222907 24 101 21.0 24.0 0.00 0.01 0.00 95 808.5
20181119222807 24 101 21.0 24.0 0.00 0.01 0.00 96 808.5
20181119222707 24 101 21.0 24.0 0.00 0.01 0.00 96 808.5
20181119222607 24 101 21.0 24.0 0.00 0.01 0.00 96 808.3
20181119222507 24 101 21.0 24.0 0.00 0.01 0.00 96 808.2
20181119222407 24 101 21.0 24.0 0.00 0.01 0.00 96 808.3
20181119222307 24 101 21.0 24.0 0.00 0.01 0.00 96 808.2
20181119222207 24 101 21.0 24.0 0.00 0.01 0.00 96 808.2
20181119222107 24 101 21.0 24.0 0.00 0.01 0.00 96 808.2
20181119222007 24 101 21.0 24.0 0.00 0.01 0.00 96 808.2
20181119221907 24 101 21.0 24.0 0.00 0.01 0.00 96 808.3
20181119221807 24 101 21.0 24.0 0.00 0.01 0.00 96 808.3
20181119221707 24 101 21.0 24.0 0.00 0.01 0.00 96 808.1
20181119221607 24 101 21.0 24.0 0.00 0.01 0.00 96 808.2
20181119221507 24 101 21.0 24.0 0.00 0.01 0.00 96 808.3
20181119221407 24 101 21.0 24.0 0.00 0.01 0.00 96 808.3
20181119221307 24 101 21.0 24.0 0.00 0.01 0.00 96 808.3
20181119221207 24 101 21.0 24.0 0.00 0.01 0.00 95 808.2
20181119221107 24 101 21.0 24.0 0.00 0.01 0.00 95 808.2
20181119221007 24 101 21.0 24.0 0.00 0.01 0.00 95 808.2
20181119220907 24 101 21.0 24.0 0.00 0.01 0.00 95 808.3
20181119220807 24 101 21.0 24.0 0.00 0.01 0.00 95 808.5
20181119220707 24 101 21.0 24.0 0.00 0.01 0.00 95 808.5
20181119220607 24 101 21.0 24.0 0.00 0.01 0.00 95 808.5
20181119220507 24 101 21.0 24.0 0.00 0.01 0.00 95 808.5
20181119220407 24 101 21.0 24.0 0.00 0.01 0.00 95 808.3
20181119220307 24 101 21.0 24.0 0.00 0.01 0.00 95 808.3
20181119220207 24 101 21.0 24.0 0.00 0.01 0.00 95 808.3
20181119220107 24 101 21.0 24.0 0.00 0.01 0.00 96 808.2
20181119220008 24 101 21.0 24.0 0.00 0.01 0.00 96 808.3
20181119215907 24 101 21.0 24.0 0.00 0.01 0.00 96 808.2
20181119215807 24 101 21.0 24.0 0.00 0.01 0.00 96 808.2
20181119215707 24 101 21.0 24.0 0.00 0.01 0.00 96 808.3
20181119215607 24 101 21.0 24.0 0.00 0.01 0.00 96 808.2
20181119215507 24 101 21.0 24.0 0.00 0.01 0.00 96 808.3
20181119215307 24 101 21.0 24.0 0.00 0.01 0.00 96 808.1
20181119215207 24 101 21.0 24.0 0.00 0.01 0.00 96 808.1
20181119215107 24 101 21.0 24.0 0.00 0.01 0.00 96 808.2
20181119215007 24 101 21.0 24.0 0.00 0.01 0.00 96 808.1
20181119214907 24 101 21.0 24.0 0.00 0.01 0.00 96 808.1
20181119214807 24 101 21.0 24.0 0.00 0.01 0.00 96 807.9
20181119214707 24 101 21.0 24.0 0.00 0.01 0.00 96 808.2
20181119214607 24 101 21.0 24.0 0.00 0.01 0.00 96 808.1
20181119214507 24 101 21.0 24.0 0.00 0.01 0.00 96 808.1
20181119214407 24 101 21.0 24.0 0.00 0.01 0.00 96 808.1
20181119214307 24 101 21.0 24.0 0.00 0.01 0.00 96 808.1
20181119214207 24 101 21.0 24.0 0.00 0.01 0.00 96 808.1
20181119214107 24 101 21.0 24.0 0.00 0.01 0.00 95 808.1
20181119214007 24 101 21.0 24.0 0.00 0.01 0.00 95 808.1
20181119213907 24 101 21.0 24.0 0.00 0.01 0.00 95 807.9
20181119213807 24 101 21.0 24.0 0.00 0.01 0.00 95 808.1
20181119213707 24 101 21.0 24.0 0.00 0.01 0.00 95 808.1
20181119213607 24 101 21.0 24.0 0.00 0.01 0.00 95 808.1
20181119213508 24 101 21.0 24.0 0.00 0.01 0.00 95 808.1
20181119213408 24 101 21.0 24.0 0.00 0.01 0.00 95 808.2
20181119213307 24 101 21.0 24.0 0.00 0.01 0.00 95 808.2
20181119213207 24 101 21.0 24.0 0.00 0.01 0.00 95 808.1
20181119213107 24 101 21.0 24.0 0.00 0.01 0.00 95 808.2
20181119213008 24 101 21.0 24.0 0.00 0.01 0.00 95 808.2
20181119212907 24 101 21.0 24.0 0.00 0.01 0.00 95 808.2
20181119212807 24 101 21.0 24.0 0.00 0.01 0.00 95 808.2
20181119212707 24 101 21.0 24.0 0.00 0.01 0.00 95 808.2
20181119212607 24 101 21.0 24.0 0.00 0.01 0.00 95 808.2
20181119212507 24 101 21.0 24.0 0.00 0.01 0.00 95 808.1
20181119212407 24 101 21.0 24.0 0.00 0.01 0.00 95 808.1
20181119212307 24 101 21.0 24.0 0.00 0.01 0.00 95 808.1
20181119212207 24 101 21.0 24.0 0.00 0.01 0.00 95 808.1
20181119212107 24 101 21.0 24.0 0.00 0.01 0.00 95 808.1
20181119212007 24 101 21.0 24.0 0.00 0.01 0.00 95 808.1
20181119211907 24 101 21.0 24.0 0.00 0.01 0.00 95 807.9
20181119211807 24 101 21.0 24.0 0.00 0.01 0.00 95 807.8
20181119211707 24 101 21.0 24.0 0.00 0.01 0.00 95 807.8
20181119211607 24 101 21.0 24.0 0.00 0.01 0.00 95 807.9
20181119211507 24 101 21.0 24.0 0.00 0.01 0.00 95 807.9
20181119211407 24 101 21.0 24.0 0.00 0.01 0.00 95 807.7
20181119211307 24 101 21.0 24.0 0.00 0.01 0.00 95 807.8
20181119211207 24 101 21.0 24.0 0.00 0.01 0.00 95 807.8
20181119211107 24 101 21.0 24.0 0.00 0.01 0.00 95 807.7
20181119211007 24 101 21.0 24.0 0.00 0.01 0.00 95 807.8
20181119210907 24 101 21.0 24.0 0.00 0.01 0.00 95 807.7
20181119210807 24 101 21.0 24.0 0.00 0.01 0.00 95 807.9
20181119210708 24 101 21.0 24.0 0.00 0.01 0.00 95 807.8
20181119210608 24 101 21.0 24.0 0.00 0.01 0.00 95 807.8
20181119210507 24 101 21.0 24.0 0.00 0.01 0.00 95 807.8
20181119210407 24 101 21.0 24.0 0.00 0.01 0.00 95 807.9
20181119210307 24 101 21.0 24.0 0.00 0.01 0.00 95 807.9
20181119210207 24 101 21.0 24.0 0.00 0.01 0.00 95 807.8
20181119210107 24 101 21.0 24.0 0.00 0.01 0.00 95 807.8
20181119210007 24 101 21.0 24.0 0.00 0.01 0.00 95 807.9
20181119205910 24 101 21.0 24.0 0.00 0.01 0.00 95 807.8
20181119205807 24 101 21.0 24.0 0.00 0.01 0.00 95 807.8
20181119205707 24 101 21.0 24.0 0.00 0.01 0.00 95 807.8
20181119205607 24 101 21.0 24.0 0.00 0.01 0.00 95 807.8
20181119205507 24 101 21.0 24.0 0.00 0.01 0.00 95 807.8
20181119205407 24 101 21.0 24.0 0.00 0.01 0.00 95 807.8
20181119205307 24 101 21.0 24.0 0.00 0.01 0.00 95 807.7
20181119205207 24 101 21.0 24.0 0.00 0.01 0.00 95 807.8
20181119205107 24 101 21.0 24.0 0.00 0.01 0.00 95 807.7
20181119205007 24 101 21.0 24.0 0.00 0.01 0.00 95 807.8
20181119204907 24 101 21.0 24.0 0.00 0.01 0.00 95 807.7
20181119204807 24 101 21.0 24.0 0.00 0.01 0.00 95 807.8
20181119204707 24 101 21.0 24.0 0.00 0.01 0.00 95 807.7
20181119204607 24 101 21.0 24.0 0.00 0.01 0.00 95 807.7
20181119204507 24 101 21.0 24.0 0.00 0.01 0.00 95 807.8
20181119204407 24 101 21.0 24.0 0.00 0.01 0.00 95 807.8
20181119204307 24 101 21.0 24.0 0.00 0.01 0.00 95 807.8
20181119204207 24 101 21.0 24.0 0.00 0.01 0.00 95 807.7
20181119204107 24 101 21.0 24.0 0.00 0.01 0.00 95 807.7
20181119204007 24 101 21.0 24.0 0.00 0.01 0.00 95 807.8
20181119203907 24 101 21.0 24.0 0.00 0.01 0.00 95 807.7
20181119203807 24 101 21.0 24.0 0.00 0.01 0.00 95 807.9
20181119203707 24 101 21.0 24.0 0.00 0.01 0.00 95 807.9
20181119203607 23 101 21.0 24.0 0.00 0.01 0.00 95 807.8
20181119203507 23 101 21.0 24.0 0.00 0.01 0.00 95 807.9
20181119203407 23 101 21.0 24.0 0.00 0.01 0.00 95 807.9
20181119203307 23 101 21.0 24.0 0.00 0.01 0.00 95 807.7
20181119203207 23 101 21.0 24.0 0.00 0.01 0.00 95 807.8
20181119203107 23 101 21.0 24.0 0.00 0.01 0.00 95 807.9
20181119203007 23 101 21.0 24.0 0.00 0.01 0.00 95 807.9
20181119202907 23 101 21.0 24.0 0.00 0.01 0.00 95 807.7
20181119202807 23 101 21.0 24.0 0.00 0.01 0.00 95 807.8
20181119202707 23 101 21.0 24.0 0.00 0.01 0.00 95 807.8
20181119202607 23 101 21.0 24.0 0.00 0.01 0.00 95 807.8
20181119202507 23 101 21.0 24.0 0.00 0.01 0.00 95 807.7
20181119202407 23 101 21.0 24.0 0.00 0.01 0.00 95 807.8
20181119202307 23 101 21.0 24.0 0.00 0.01 0.00 95 807.8
20181119202207 23 101 21.0 24.0 0.00 0.01 0.00 95 807.7
20181119202107 23 101 21.0 24.0 0.00 0.01 0.00 95 807.7
20181119202007 23 101 21.0 24.0 0.00 0.01 0.00 95 807.7
20181119201907 23 101 21.0 24.0 0.00 0.01 0.00 95 807.7
20181119201807 23 101 21.0 24.0 0.00 0.01 0.00 95 807.7
20181119201707 23 101 21.0 24.0 0.00 0.01 0.00 95 807.7
20181119201607 23 101 21.0 24.0 0.00 0.01 0.00 95 807.7
20181119201507 23 101 21.0 24.0 0.00 0.01 0.00 95 807.7
20181119201407 23 101 21.0 24.0 0.00 0.01 0.00 95 807.5
20181119201307 23 101 21.0 24.0 0.00 0.01 0.00 95 807.7
20181119201207 23 101 21.0 24.0 0.00 0.01 0.00 95 807.7
20181119201107 23 101 21.0 24.0 0.00 0.01 0.00 95 807.7
20181119201007 23 101 21.0 24.0 0.00 0.01 0.00 95 807.5
20181119200907 23 101 21.0 24.0 0.00 0.01 0.00 95 807.7
20181119200707 23 101 21.0 24.0 0.00 0.01 0.00 95 807.7
20181119200607 23 101 21.0 24.0 0.00 0.01 0.00 95 807.7
20181119200507 23 101 21.0 24.0 0.00 0.01 0.00 95 807.5
20181119200407 23 101 21.0 24.0 0.00 0.01 0.00 95 807.4
20181119200307 23 101 21.0 24.0 0.00 0.01 0.00 95 807.5
20181119200207 23 101 21.0 24.0 0.00 0.01 0.00 95 807.5
20181119200107 23 101 21.0 24.0 0.00 0.01 0.00 95 807.7
20181119200008 23 101 21.0 24.0 0.00 0.01 0.00 95 807.4
20181119195907 23 101 21.0 24.0 0.00 0.01 0.00 95 807.5
20181119195707 23 101 21.0 24.0 0.00 0.01 0.00 95 807.5
20181119195607 23 101 21.0 24.0 0.00 0.01 0.00 95 807.4
20181119195507 23 101 21.0 24.0 0.00 0.01 0.00 95 807.3
20181119195407 23 101 21.0 24.0 0.00 0.01 0.00 95 807.4
20181119195307 23 101 21.0 24.0 0.00 0.01 0.00 95 807.4
20181119195207 23 101 21.0 24.0 0.00 0.01 0.00 95 807.4
20181119195107 23 101 21.0 24.0 0.00 0.01 0.00 95 807.4
20181119195007 23 101 21.0 24.0 0.00 0.01 0.00 95 807.4
20181119194907 23 101 21.0 24.0 0.00 0.01 0.00 95 807.4
20181119194807 23 101 21.0 24.0 0.00 0.01 0.00 95 807.3
20181119194707 23 101 21.0 24.0 0.00 0.01 0.00 95 807.3
20181119194607 23 101 21.0 24.0 0.00 0.01 0.00 95 807.3
20181119194507 23 101 21.0 24.0 0.00 0.01 0.00 95 807.3
20181119194407 23 101 21.0 24.0 0.00 0.01 0.00 95 807.3
20181119194307 23 101 21.0 24.0 0.00 0.01 0.00 95 807.3
20181119194207 23 101 21.0 24.0 0.00 0.01 0.00 95 807.3
20181119194107 23 101 21.0 24.0 0.00 0.01 0.00 95 807.3
20181119194007 23 101 21.0 24.0 0.00 0.01 0.00 95 807.3
20181119193907 23 101 21.0 24.0 0.00 0.01 0.00 95 807.3
20181119193807 23 101 21.0 24.0 0.00 0.01 0.00 95 807.3
20181119193707 23 101 21.0 24.0 0.00 0.01 0.00 95 807.3
20181119193607 23 101 21.0 24.0 0.00 0.01 0.00 95 807.3
20181119193507 23 101 21.0 24.0 0.00 0.01 0.00 95 807.3
20181119193407 23 101 21.0 24.0 0.00 0.01 0.00 95 807.3
20181119193307 23 101 21.0 24.0 0.00 0.01 0.00 95 807.3
20181119193207 23 101 21.0 24.0 0.00 0.01 0.00 95 807.3
20181119193107 23 101 21.0 24.0 0.00 0.01 0.00 95 807.3
20181119193007 23 101 21.0 24.0 0.00 0.01 0.00 95 807.1
20181119192907 23 101 21.0 24.0 0.00 0.01 0.00 95 807.1
20181119192807 23 101 21.0 24.0 0.00 0.01 0.00 95 807.3
20181119192707 23 101 21.0 24.0 0.00 0.01 0.00 95 807.1
20181119192607 23 101 21.0 24.0 0.00 0.01 0.00 95 807.3
20181119192507 23 101 21.0 24.0 0.00 0.01 0.00 95 807.3
20181119192407 23 101 21.0 24.0 0.00 0.01 0.00 95 807.1
20181119192307 23 101 21.0 24.0 0.00 0.01 0.00 95 807.3
20181119192207 23 101 21.0 24.0 0.00 0.01 0.00 95 807.0
20181119192107 23 101 21.0 24.0 0.00 0.01 0.00 95 807.3
20181119192007 23 101 21.0 24.0 0.00 0.01 0.00 95 807.1
20181119191907 22 101 21.0 24.0 0.00 0.01 0.00 95 806.9
20181119191807 22 101 21.0 24.0 0.00 0.01 0.00 95 807.1
20181119191707 22 101 21.0 24.0 0.00 0.01 0.00 95 806.9
20181119191607 22 101 21.0 24.0 0.00 0.01 0.00 95 807.0
20181119191507 22 101 21.0 24.0 0.00 0.01 0.00 95 807.0
20181119191407 22 101 21.0 24.0 0.00 0.01 0.00 95 807.1
20181119191307 22 101 21.0 24.0 0.00 0.01 0.00 95 807.0
20181119191208 22 101 21.0 24.0 0.00 0.01 0.00 95 807.0
20181119191108 22 101 21.0 24.0 0.00 0.01 0.00 95 807.0
20181119191007 22 101 21.0 24.0 0.00 0.01 0.00 95 806.9
20181119190907 22 101 21.0 24.0 0.00 0.01 0.00 95 806.9
20181119190807 22 101 21.0 24.0 0.00 0.01 0.00 95 806.9
20181119190707 22 101 21.0 24.0 0.00 0.01 0.00 95 806.9
20181119190607 22 101 21.0 24.0 0.00 0.01 0.00 95 807.0
20181119190507 22 101 21.0 24.0 0.00 0.01 0.00 95 806.9
20181119190407 22 101 21.0 24.0 0.00 0.01 0.00 95 807.0
20181119190307 22 101 21.0 24.0 0.00 0.01 0.00 95 806.9
20181119190207 22 101 21.0 24.0 0.00 0.01 0.00 95 807.0
20181119190107 22 101 21.0 24.0 0.00 0.01 0.00 95 806.9
20181119190007 22 101 21.0 24.0 0.00 0.01 0.00 95 807.0
20181119185907 22 101 21.0 24.0 0.00 0.01 0.00 95 806.9
20181119185807 22 101 21.0 24.0 0.00 0.01 0.00 95 806.9
20181119185707 22 101 21.0 24.0 0.00 0.01 0.00 95 806.9
20181119185607 22 101 21.0 24.0 0.00 0.01 0.00 95 806.9
20181119185507 22 101 21.0 24.0 0.00 0.01 0.00 95 807.0
20181119185407 22 101 21.0 24.0 0.00 0.01 0.00 95 806.9
20181119185307 22 101 21.0 24.0 0.00 0.01 0.00 95 806.9
20181119185207 22 101 21.0 24.0 0.00 0.01 0.00 95 806.9
20181119185107 22 101 21.0 24.0 0.00 0.01 0.00 95 806.9
20181119185007 22 101 21.0 24.0 0.00 0.01 0.00 95 806.9
20181119184907 22 101 21.0 24.0 0.00 0.01 0.00 95 806.9
20181119184807 22 101 21.0 24.0 0.00 0.01 0.00 95 807.0
20181119184707 22 101 21.0 24.0 0.00 0.01 0.00 95 806.9
20181119184607 22 101 21.0 24.0 0.00 0.01 0.00 95 806.7
20181119184507 22 101 21.0 24.0 0.00 0.01 0.00 95 806.9
20181119184407 22 101 21.0 24.0 0.00 0.01 0.00 95 806.9
20181119184307 22 101 21.0 24.0 0.00 0.01 0.00 95 806.9
20181119184207 22 101 21.0 24.0 0.00 0.01 0.00 95 806.9
20181119184107 21 101 21.0 24.0 0.00 0.01 0.00 95 806.9
20181119184007 21 101 21.0 24.0 0.00 0.01 0.00 95 806.9
20181119183907 21 101 21.0 24.0 0.00 0.01 0.00 95 806.9
20181119183807 21 101 21.0 24.0 0.00 0.01 0.00 95 806.7
20181119183707 21 101 21.0 24.0 0.00 0.01 0.00 95 806.9
20181119183607 21 101 21.0 24.0 0.00 0.01 0.00 95 806.9
20181119183507 21 101 21.0 24.0 0.00 0.01 0.00 95 806.9
20181119183407 21 101 21.0 24.0 0.00 0.01 0.00 95 806.9
20181119183307 21 101 21.0 24.0 0.00 0.01 0.00 95 806.9
20181119183207 21 101 21.0 24.0 0.00 0.01 0.00 95 806.9
20181119183107 21 101 21.0 24.0 0.00 0.01 0.00 95 806.9
20181119183007 21 101 21.0 24.0 0.00 0.01 0.00 95 806.9
20181119182907 21 101 21.0 24.0 0.00 0.01 0.00 95 806.9
20181119182807 21 101 21.0 24.0 0.00 0.01 0.00 95 806.7
20181119182707 21 101 21.0 24.0 0.00 0.01 0.00 95 806.9
20181119182607 21 101 21.0 24.0 0.00 0.01 0.00 95 806.7
20181119182507 21 101 21.0 24.0 0.00 0.01 0.00 95 806.6
20181119182407 21 101 21.0 24.0 0.00 0.01 0.00 95 806.7
20181119182307 21 101 21.0 24.0 0.00 0.01 0.00 95 806.6
20181119182207 21 101 21.0 24.0 0.00 0.01 0.00 95 806.7
20181119182109 21 101 21.0 24.0 0.00 0.01 0.00 95 806.6
20181119182007 21 101 21.0 24.0 0.00 0.01 0.00 95 806.6
20181119181909 21 101 21.0 24.0 0.00 0.01 0.00 95 806.6
20181119181807 21 101 21.0 24.0 0.00 0.01 0.00 95 806.6
20181119181707 21 101 21.0 24.0 0.00 0.01 0.00 95 806.6
20181119181607 21 101 21.0 24.0 0.00 0.01 0.00 95 806.7
20181119181507 21 101 21.0 24.0 0.00 0.01 0.00 95 806.6
20181119181406 21 101 21.0 24.0 0.00 0.01 0.00 95 806.6
20181119181307 21 101 21.0 24.0 0.00 0.01 0.00 95 806.6
20181119181207 21 101 21.0 24.0 0.00 0.01 0.00 95 806.5
20181119181107 21 101 21.0 24.0 0.00 0.01 0.00 95 806.5
20181119181007 21 101 21.0 24.0 0.00 0.01 0.00 94 806.5
20181119180907 21 101 21.0 24.0 0.00 0.01 0.00 95 806.3
20181119180807 21 101 21.0 24.0 0.00 0.01 0.00 95 806.3
20181119180707 21 101 21.0 24.0 0.00 0.01 0.00 95 806.5
20181119180607 21 101 21.0 24.0 0.00 0.01 0.00 95 806.2
20181119180507 21 101 21.0 24.0 0.00 0.01 0.00 95 806.1
20181119180407 21 101 21.0 24.0 0.00 0.01 0.00 94 806.2
20181119180307 21 101 21.0 24.0 0.00 0.01 0.00 94 806.3
20181119180207 21 101 21.0 24.0 0.00 0.01 0.00 94 806.1
20181119180107 21 101 21.0 24.0 0.00 0.01 0.00 94 806.2
20181119180007 21 101 21.0 24.0 0.00 0.01 0.00 94 806.2
20181119175907 21 101 21.0 24.0 0.00 0.01 0.00 94 806.1
20181119175807 21 101 21.0 24.0 0.00 0.01 0.00 94 806.1
20181119175707 21 101 21.0 24.0 0.00 0.01 0.00 94 806.2
20181119175606 21 101 21.0 24.0 0.00 0.01 0.00 94 806.1
20181119175508 21 101 21.0 24.0 0.00 0.01 0.00 94 806.2
20181119175406 21 101 21.0 24.0 0.00 0.01 0.00 94 806.2
20181119175306 21 101 21.0 24.0 0.00 0.01 0.00 94 806.2
20181119175207 21 101 21.0 24.0 0.00 0.01 0.00 94 806.5
20181119175106 21 101 21.0 24.0 0.00 0.01 0.00 94 806.5
20181119174907 21 101 21.0 24.0 0.00 0.01 0.00 94 806.5
20181119174807 21 101 21.0 24.0 0.00 0.01 0.00 94 806.2
20181119174706 21 101 21.0 24.0 0.00 0.01 0.00 94 806.3
20181119174607 21 101 21.0 24.0 0.00 0.01 0.00 94 806.5
20181119174507 21 101 21.0 24.0 0.00 0.01 0.00 94 806.2
20181119174407 21 101 21.0 24.0 0.00 0.01 0.00 94 806.5
20181119174307 21 101 21.0 24.0 0.00 0.01 0.00 94 806.3
20181119174207 21 101 21.0 24.0 0.00 0.01 0.00 94 806.3
20181119174107 21 101 21.0 24.0 0.00 0.01 0.00 94 806.2
20181119174007 21 101 21.0 24.0 0.00 0.01 0.00 94 806.3
20181119173907 21 101 21.0 24.0 0.00 0.01 0.00 94 806.1
20181119173807 21 101 21.0 24.0 0.00 0.01 0.00 94 806.1
20181119173706 21 101 21.0 24.0 0.00 0.01 0.00 94 806.1
20181119173607 21 101 21.0 24.0 0.00 0.01 0.00 94 806.2
20181119173507 21 101 21.0 24.0 0.00 0.01 0.00 95 805.9
20181119173407 21 101 21.0 24.0 0.00 0.01 0.00 95 805.8
20181119173307 21 101 21.0 24.0 0.00 0.01 0.00 95 805.9
20181119173206 21 101 21.0 24.0 0.00 0.01 0.00 95 805.8
20181119173107 21 101 21.0 24.0 0.00 0.01 0.00 95 805.7
20181119173007 21 101 21.0 24.0 0.00 0.01 0.00 95 805.7
20181119172907 21 101 21.0 24.0 0.00 0.01 0.00 95 805.7
20181119172807 21 101 21.0 24.0 0.00 0.01 0.00 95 805.5
20181119172706 21 101 21.0 24.0 0.00 0.01 0.00 95 805.7
20181119172607 21 101 21.0 24.0 0.00 0.01 0.00 95 805.4
20181119172507 21 101 21.0 24.0 0.00 0.01 0.00 95 805.8
20181119172406 21 101 21.0 24.0 0.00 0.01 0.00 95 805.4
20181119172307 21 101 21.0 24.0 0.00 0.01 0.00 95 805.7
20181119172207 21 101 21.0 24.0 0.00 0.01 0.00 95 805.7
20181119172107 21 101 21.0 24.0 0.00 0.01 0.00 95 805.8
20181119172007 21 101 21.0 24.0 0.00 0.01 0.00 95 805.7
20181119171907 21 101 21.0 24.0 0.00 0.01 0.00 95 805.9
20181119171807 21 101 21.0 24.0 0.00 0.01 0.00 95 805.9
20181119171707 21 101 21.0 24.0 0.00 0.01 0.00 95 805.9
20181119171607 21 101 21.0 24.0 0.00 0.01 0.00 95 805.9
20181119171507 21 101 21.0 24.0 0.00 0.01 0.00 95 805.7
20181119171407 21 101 21.0 24.0 0.00 0.01 0.00 95 805.8
20181119171307 21 101 21.0 24.0 0.00 0.01 0.00 95 805.8
20181119171207 21 101 21.0 24.0 0.00 0.01 0.00 95 805.9
20181119171107 21 101 21.0 24.0 0.00 0.01 0.00 95 805.4
20181119171007 21 101 21.0 24.0 0.00 0.01 0.00 95 805.5
20181119170907 21 101 21.0 24.0 0.00 0.01 0.00 95 805.7
20181119170807 21 101 21.0 24.0 0.00 0.01 0.00 95 805.8
20181119170707 21 101 21.0 24.0 0.00 0.01 0.00 95 805.8
20181119170607 21 101 21.0 24.0 0.00 0.01 0.00 95 805.8
20181119170507 21 101 21.0 24.0 0.00 0.01 0.00 94 805.7
20181119170407 21 101 21.0 24.0 0.00 0.01 0.00 94 805.7
20181119170306 21 101 21.0 24.0 0.00 0.01 0.00 94 805.8
20181119170207 21 101 21.0 24.0 0.00 0.01 0.00 94 806.1
20181119170106 21 101 21.0 24.0 0.00 0.01 0.00 94 805.8
20181119170007 21 101 21.0 24.0 0.00 0.01 0.00 94 805.9
20181119165907 21 101 21.0 24.0 0.00 0.01 0.00 94 805.7
20181119165807 21 101 21.0 24.0 0.00 0.01 0.00 94 805.7
20181119165606 21 101 21.0 24.0 0.00 0.01 0.00 94 805.8
20181119165506 21 101 21.0 24.0 0.00 0.01 0.00 94 805.8
20181119165407 21 101 21.0 24.0 0.00 0.01 0.00 94 805.8
20181119165307 21 101 21.0 24.0 0.00 0.01 0.00 94 805.8
20181119165206 21 101 21.0 24.0 0.00 0.01 0.00 94 805.8
20181119165106 21 101 21.0 24.0 0.00 0.01 0.00 95 805.7
20181119165007 21 101 21.0 24.0 0.00 0.01 0.00 95 805.7
20181119164907 21 101 21.0 24.0 0.00 0.01 0.00 95 805.5
20181119164806 21 101 21.0 24.0 0.00 0.01 0.00 95 805.7
20181119164707 21 101 21.0 24.0 0.00 0.01 0.00 95 805.7
20181119164606 21 101 21.0 24.0 0.00 0.01 0.00 95 805.5
20181119164506 21 101 21.0 24.0 0.00 0.01 0.00 95 805.4
20181119164406 21 101 21.0 24.0 0.00 0.01 0.00 95 805.5
20181119164307 21 101 21.0 24.0 0.00 0.01 0.00 95 805.5
20181119164206 21 101 21.0 24.0 0.00 0.01 0.00 95 805.7
20181119164107 21 101 21.0 24.0 0.00 0.01 0.00 95 805.7
20181119164007 21 101 21.0 24.0 0.00 0.01 0.00 95 805.7
20181119163906 21 101 21.0 24.0 0.00 0.01 0.00 95 805.7
20181119163806 21 101 21.0 24.0 0.00 0.01 0.00 95 805.7
20181119163706 21 101 21.0 24.0 0.00 0.01 0.00 95 805.7
20181119163607 21 101 21.0 24.0 0.00 0.01 0.00 95 805.8
20181119163506 21 101 21.0 24.0 0.00 0.01 0.00 95 805.7
20181119163407 21 101 21.0 24.0 0.00 0.01 0.00 94 805.7
20181119163307 21 101 21.0 24.0 0.00 0.01 0.00 94 805.7
20181119163207 21 101 21.0 24.0 0.00 0.01 0.00 94 805.5
20181119163106 21 101 21.0 24.0 0.00 0.01 0.00 94 805.5
20181119163007 21 101 21.0 24.0 0.00 0.01 0.00 94 805.4
20181119162906 21 101 21.0 24.0 0.00 0.01 0.00 94 805.7
20181119162806 21 101 21.0 24.0 0.00 0.01 0.00 94 805.5
20181119162706 21 101 21.0 24.0 0.00 0.01 0.00 94 805.4
20181119162607 21 101 21.0 24.0 0.00 0.01 0.00 94 805.4
20181119162507 21 101 21.0 24.0 0.00 0.01 0.00 94 805.5
20181119162407 21 101 21.0 24.0 0.00 0.01 0.00 94 805.5
20181119162307 21 101 21.0 24.0 0.00 0.01 0.00 94 805.5
20181119162206 21 101 21.0 24.0 0.00 0.01 0.00 94 805.8
20181119162107 21 101 21.0 24.0 0.00 0.01 0.00 94 805.7
20181119162007 21 101 21.0 24.0 0.00 0.01 0.00 94 805.7
20181119161907 21 101 21.0 24.0 0.00 0.01 0.00 94 805.7
20181119161806 21 101 21.0 24.0 0.00 0.01 0.00 95 805.7
20181119161706 21 101 21.0 24.0 0.00 0.01 0.00 95 805.5
20181119161606 21 101 21.0 24.0 0.00 0.01 0.00 95 805.4
20181119161506 21 101 21.0 24.0 0.00 0.01 0.00 95 805.3
20181119161406 21 101 21.0 24.0 0.00 0.01 0.00 95 805.4
20181119161306 21 101 21.0 24.0 0.00 0.01 0.00 95 805.1
20181119161206 21 101 21.0 24.0 0.00 0.01 0.00 95 805.3
20181119161106 21 101 21.0 24.0 0.00 0.01 0.00 94 805.3
20181119161006 21 101 21.0 24.0 0.00 0.01 0.00 94 805.1
20181119160906 21 101 21.0 24.0 0.00 0.01 0.00 94 805.0
20181119160806 21 101 21.0 24.0 0.00 0.01 0.00 94 805.3
20181119160706 21 101 21.0 24.0 0.00 0.01 0.00 94 805.1
20181119160607 21 101 21.0 24.0 0.00 0.01 0.00 94 805.3
20181119160506 21 101 21.0 24.0 0.00 0.01 0.00 94 805.0
20181119160406 21 101 21.0 24.0 0.00 0.01 0.00 94 805.4
20181119160306 21 101 21.0 24.0 0.00 0.01 0.00 94 805.1
20181119160207 21 101 21.0 24.0 0.00 0.01 0.00 94 804.9
20181119160106 21 101 21.0 24.0 0.00 0.01 0.00 94 805.1
20181119160007 21 101 21.0 24.0 0.00 0.01 0.00 94 805.3
20181119155907 21 101 21.0 24.0 0.00 0.01 0.00 94 805.0
20181119155806 21 101 21.0 24.0 0.00 0.01 0.00 94 804.9
20181119155706 21 101 21.0 24.0 0.00 0.01 0.00 94 805.1
20181119155606 21 101 21.0 24.0 0.00 0.01 0.00 94 805.3
20181119155507 21 101 21.0 24.0 0.00 0.01 0.00 94 805.0
20181119155408 21 101 21.0 24.0 0.00 0.01 0.00 94 805.1
20181119155310 21 101 21.0 24.0 0.00 0.01 0.00 94 804.9
20181119155110 21 101 21.0 24.0 0.00 0.01 0.00 94 804.9
20181119154808 21 101 21.0 24.0 0.00 0.01 0.00 94 805.3
20181119154309 21 101 21.0 24.0 0.00 0.01 0.00 94 804.7
20181119154111 21 101 21.0 24.0 0.00 0.01 0.00 94 804.7
20181119153908 21 101 21.0 24.0 0.00 0.01 0.00 95 804.5
20181119153809 21 101 21.0 24.0 0.00 0.01 0.00 95 804.7
20181119153608 21 101 21.0 24.0 0.00 0.01 0.00 95 804.9
20181119153506 21 101 21.0 24.0 0.00 0.01 0.00 95 804.6